<?xml version="1.0" encoding="UTF-8" standalone="no" ?>
<gpx xmlns="http://www.topografix.com/GPX/1/1" xmlns:xsi="http://www.w3.org/2001/XMLSchema-instance" xsi:schemaLocation="http://www.topografix.com/GPX/1/1 http://www.topografix.com/GPX/1/1/gpx.xsd" version="1.1" creator="VisuGPX - https://www.visugpx.com">
  <metadata>
    <name>2021 doyet rst</name>
  </metadata>
  <trk>
    <name><![CDATA[2021 doyet rst]]></name>
    <trkseg>
      <trkpt lat="46.33985" lon="2.7964">
        <ele>314.99740003867</ele>
        <time>2021-05-13T19:22:07.000Z</time>
      </trkpt>
      <trkpt lat="46.34017" lon="2.79625">
        <ele>314.99230532552</ele>
        <time>2021-05-13T19:22:07.005Z</time>
      </trkpt>
      <trkpt lat="46.3403" lon="2.79622">
        <ele>315.05301354742</ele>
        <time>2021-05-13T19:22:07.012Z</time>
      </trkpt>
      <trkpt lat="46.34043" lon="2.79623">
        <ele>315.2009947912</ele>
        <time>2021-05-13T19:22:07.022Z</time>
      </trkpt>
      <trkpt lat="46.34065" lon="2.79631">
        <ele>315.32570018366</ele>
        <time>2021-05-13T19:22:07.035Z</time>
      </trkpt>
      <trkpt lat="46.34078" lon="2.79634">
        <ele>315.45225821747</ele>
        <time>2021-05-13T19:22:07.050Z</time>
      </trkpt>
      <trkpt lat="46.34087" lon="2.79632">
        <ele>315.63334678953</ele>
        <time>2021-05-13T19:22:07.067Z</time>
      </trkpt>
      <trkpt lat="46.34107" lon="2.79621">
        <ele>316.05184456557</ele>
        <time>2021-05-13T19:22:07.087Z</time>
      </trkpt>
      <trkpt lat="46.34132" lon="2.79606">
        <ele>316.34749459023</ele>
        <time>2021-05-13T19:22:07.112Z</time>
      </trkpt>
      <trkpt lat="46.34169" lon="2.79586">
        <ele>316.59657571276</ele>
        <time>2021-05-13T19:22:07.143Z</time>
      </trkpt>
      <trkpt lat="46.34178" lon="2.79585">
        <ele>316.92980399734</ele>
        <time>2021-05-13T19:22:07.175Z</time>
      </trkpt>
      <trkpt lat="46.3418" lon="2.796">
        <ele>317.28286732579</ele>
        <time>2021-05-13T19:22:07.209Z</time>
      </trkpt>
      <trkpt lat="46.34176" lon="2.79557">
        <ele>318.53847658484</ele>
        <time>2021-05-13T19:22:07.248Z</time>
      </trkpt>
      <trkpt lat="46.34177" lon="2.79536">
        <ele>319.34105901281</ele>
        <time>2021-05-13T19:22:07.289Z</time>
      </trkpt>
      <trkpt lat="46.3418" lon="2.79455">
        <ele>320.55551617651</ele>
        <time>2021-05-13T19:22:07.339Z</time>
      </trkpt>
      <trkpt lat="46.3418" lon="2.79396">
        <ele>321.61474288149</ele>
        <time>2021-05-13T19:22:07.396Z</time>
      </trkpt>
      <trkpt lat="46.34167" lon="2.79322">
        <ele>322.45671760264</ele>
        <time>2021-05-13T19:22:07.461Z</time>
      </trkpt>
      <trkpt lat="46.34155" lon="2.79235">
        <ele>323.84606611124</ele>
        <time>2021-05-13T19:22:07.536Z</time>
      </trkpt>
      <trkpt lat="46.34152" lon="2.79166">
        <ele>324.92873379721</ele>
        <time>2021-05-13T19:22:07.619Z</time>
      </trkpt>
      <trkpt lat="46.34139" lon="2.79027">
        <ele>326.0203943167</ele>
        <time>2021-05-13T19:22:07.717Z</time>
      </trkpt>
      <trkpt lat="46.34128" lon="2.78952">
        <ele>327.13309131387</ele>
        <time>2021-05-13T19:22:07.824Z</time>
      </trkpt>
      <trkpt lat="46.34115" lon="2.78905">
        <ele>328.18273907788</ele>
        <time>2021-05-13T19:22:07.936Z</time>
      </trkpt>
      <trkpt lat="46.34106" lon="2.78878">
        <ele>329.05155617093</ele>
        <time>2021-05-13T19:22:08.052Z</time>
      </trkpt>
      <trkpt lat="46.34101" lon="2.78871">
        <ele>329.79681572657</ele>
        <time>2021-05-13T19:22:08.169Z</time>
      </trkpt>
      <trkpt lat="46.34094" lon="2.78867">
        <ele>330.45070307393</ele>
        <time>2021-05-13T19:22:08.287Z</time>
      </trkpt>
      <trkpt lat="46.34058" lon="2.78864">
        <ele>331.08578134989</ele>
        <time>2021-05-13T19:22:08.411Z</time>
      </trkpt>
      <trkpt lat="46.34033" lon="2.78863">
        <ele>331.62886095131</ele>
        <time>2021-05-13T19:22:08.539Z</time>
      </trkpt>
      <trkpt lat="46.34024" lon="2.78866">
        <ele>332.05502507119</ele>
        <time>2021-05-13T19:22:08.668Z</time>
      </trkpt>
      <trkpt lat="46.34022" lon="2.78866">
        <ele>332.36484329377</ele>
        <time>2021-05-13T19:22:08.798Z</time>
      </trkpt>
      <trkpt lat="46.34015" lon="2.78872">
        <ele>332.58716538088</ele>
        <time>2021-05-13T19:22:08.929Z</time>
      </trkpt>
      <trkpt lat="46.34016" lon="2.78851">
        <ele>332.72035203956</ele>
        <time>2021-05-13T19:22:09.062Z</time>
      </trkpt>
      <trkpt lat="46.34015" lon="2.78829">
        <ele>332.78910201274</ele>
        <time>2021-05-13T19:22:09.198Z</time>
      </trkpt>
      <trkpt lat="46.34001" lon="2.78708">
        <ele>332.64139686521</ele>
        <time>2021-05-13T19:22:09.347Z</time>
      </trkpt>
      <trkpt lat="46.33999" lon="2.78658">
        <ele>332.61475626814</ele>
        <time>2021-05-13T19:22:09.502Z</time>
      </trkpt>
      <trkpt lat="46.34001" lon="2.78638">
        <ele>332.51739130662</ele>
        <time>2021-05-13T19:22:09.659Z</time>
      </trkpt>
      <trkpt lat="46.34005" lon="2.78618">
        <ele>332.35872663877</ele>
        <time>2021-05-13T19:22:09.818Z</time>
      </trkpt>
      <trkpt lat="46.34012" lon="2.78603">
        <ele>332.17111942328</ele>
        <time>2021-05-13T19:22:09.979Z</time>
      </trkpt>
      <trkpt lat="46.34031" lon="2.78569">
        <ele>331.91932662154</ele>
        <time>2021-05-13T19:22:10.145Z</time>
      </trkpt>
      <trkpt lat="46.34079" lon="2.78493">
        <ele>331.60727002667</ele>
        <time>2021-05-13T19:22:10.323Z</time>
      </trkpt>
      <trkpt lat="46.34106" lon="2.78448">
        <ele>331.05058898164</ele>
        <time>2021-05-13T19:22:10.507Z</time>
      </trkpt>
      <trkpt lat="46.3412" lon="2.78415">
        <ele>330.44062040076</ele>
        <time>2021-05-13T19:22:10.695Z</time>
      </trkpt>
      <trkpt lat="46.34151" lon="2.78318">
        <ele>329.94602403906</ele>
        <time>2021-05-13T19:22:10.895Z</time>
      </trkpt>
      <trkpt lat="46.34205" lon="2.78153">
        <ele>329.21639821679</ele>
        <time>2021-05-13T19:22:11.116Z</time>
      </trkpt>
      <trkpt lat="46.34224" lon="2.7811">
        <ele>328.28451405711</ele>
        <time>2021-05-13T19:22:11.342Z</time>
      </trkpt>
      <trkpt lat="46.34255" lon="2.78055">
        <ele>327.29422692529</ele>
        <time>2021-05-13T19:22:11.576Z</time>
      </trkpt>
      <trkpt lat="46.34311" lon="2.77955">
        <ele>326.46576192051</ele>
        <time>2021-05-13T19:22:11.824Z</time>
      </trkpt>
      <trkpt lat="46.34327" lon="2.77913">
        <ele>325.55556598264</ele>
        <time>2021-05-13T19:22:12.078Z</time>
      </trkpt>
      <trkpt lat="46.34334" lon="2.77885">
        <ele>324.64499496002</ele>
        <time>2021-05-13T19:22:12.335Z</time>
      </trkpt>
      <trkpt lat="46.34342" lon="2.77834">
        <ele>323.59580575794</ele>
        <time>2021-05-13T19:22:12.598Z</time>
      </trkpt>
      <trkpt lat="46.34355" lon="2.77641">
        <ele>322.24191999137</ele>
        <time>2021-05-13T19:22:12.882Z</time>
      </trkpt>
      <trkpt lat="46.34358" lon="2.77604">
        <ele>321.4881903551</ele>
        <time>2021-05-13T19:22:13.170Z</time>
      </trkpt>
      <trkpt lat="46.34364" lon="2.77549">
        <ele>320.65816496521</ele>
        <time>2021-05-13T19:22:13.464Z</time>
      </trkpt>
      <trkpt lat="46.34371" lon="2.77499">
        <ele>320.71634373303</ele>
        <time>2021-05-13T19:22:13.764Z</time>
      </trkpt>
      <trkpt lat="46.34381" lon="2.7745">
        <ele>321.03254451278</ele>
        <time>2021-05-13T19:22:14.070Z</time>
      </trkpt>
      <trkpt lat="46.34417" lon="2.77328">
        <ele>321.32054638343</ele>
        <time>2021-05-13T19:22:14.391Z</time>
      </trkpt>
      <trkpt lat="46.34423" lon="2.77304">
        <ele>321.84511005783</ele>
        <time>2021-05-13T19:22:14.714Z</time>
      </trkpt>
      <trkpt lat="46.34432" lon="2.77262">
        <ele>322.62865602925</ele>
        <time>2021-05-13T19:22:15.042Z</time>
      </trkpt>
      <trkpt lat="46.34444" lon="2.77194">
        <ele>323.62285400818</ele>
        <time>2021-05-13T19:22:15.378Z</time>
      </trkpt>
      <trkpt lat="46.34466" lon="2.77114">
        <ele>324.65792452233</ele>
        <time>2021-05-13T19:22:15.724Z</time>
      </trkpt>
      <trkpt lat="46.34513" lon="2.76954">
        <ele>326.07038204431</ele>
        <time>2021-05-13T19:22:16.089Z</time>
      </trkpt>
      <trkpt lat="46.3453" lon="2.76863">
        <ele>327.26810308383</ele>
        <time>2021-05-13T19:22:16.464Z</time>
      </trkpt>
      <trkpt lat="46.34553" lon="2.76722">
        <ele>328.67639606992</ele>
        <time>2021-05-13T19:22:16.855Z</time>
      </trkpt>
      <trkpt lat="46.34572" lon="2.76451">
        <ele>329.8955345676</ele>
        <time>2021-05-13T19:22:17.276Z</time>
      </trkpt>
      <trkpt lat="46.34573" lon="2.76431">
        <ele>332.21402637278</ele>
        <time>2021-05-13T19:22:17.700Z</time>
      </trkpt>
      <trkpt lat="46.34557" lon="2.76426">
        <ele>333.27910109258</ele>
        <time>2021-05-13T19:22:18.126Z</time>
      </trkpt>
      <trkpt lat="46.34532" lon="2.7642">
        <ele>334.32956068354</ele>
        <time>2021-05-13T19:22:18.556Z</time>
      </trkpt>
      <trkpt lat="46.34486" lon="2.7642">
        <ele>335.43310612043</ele>
        <time>2021-05-13T19:22:18.994Z</time>
      </trkpt>
      <trkpt lat="46.34426" lon="2.76413">
        <ele>336.43468696743</ele>
        <time>2021-05-13T19:22:19.441Z</time>
      </trkpt>
      <trkpt lat="46.3439" lon="2.76414">
        <ele>337.46259001142</ele>
        <time>2021-05-13T19:22:19.894Z</time>
      </trkpt>
      <trkpt lat="46.34377" lon="2.76412">
        <ele>338.39088194789</ele>
        <time>2021-05-13T19:22:20.349Z</time>
      </trkpt>
      <trkpt lat="46.34289" lon="2.76394">
        <ele>339.24616349394</ele>
        <time>2021-05-13T19:22:20.818Z</time>
      </trkpt>
      <trkpt lat="46.34166" lon="2.76356">
        <ele>340.4565327612</ele>
        <time>2021-05-13T19:22:21.308Z</time>
      </trkpt>
      <trkpt lat="46.34135" lon="2.76345">
        <ele>341.30884200893</ele>
        <time>2021-05-13T19:22:21.803Z</time>
      </trkpt>
      <trkpt lat="46.34036" lon="2.76294">
        <ele>343.04517732314</ele>
        <time>2021-05-13T19:22:22.315Z</time>
      </trkpt>
      <trkpt lat="46.33991" lon="2.7627">
        <ele>343.8356399872</ele>
        <time>2021-05-13T19:22:22.834Z</time>
      </trkpt>
      <trkpt lat="46.33971" lon="2.76261">
        <ele>344.57423996069</ele>
        <time>2021-05-13T19:22:23.357Z</time>
      </trkpt>
      <trkpt lat="46.3395" lon="2.7625">
        <ele>345.2723444919</ele>
        <time>2021-05-13T19:22:23.883Z</time>
      </trkpt>
      <trkpt lat="46.33905" lon="2.76209">
        <ele>346.05330390584</ele>
        <time>2021-05-13T19:22:24.418Z</time>
      </trkpt>
      <trkpt lat="46.3387" lon="2.7617">
        <ele>346.77841343693</ele>
        <time>2021-05-13T19:22:24.960Z</time>
      </trkpt>
      <trkpt lat="46.3384" lon="2.76139">
        <ele>347.34096481694</ele>
        <time>2021-05-13T19:22:25.508Z</time>
      </trkpt>
      <trkpt lat="46.33828" lon="2.76134">
        <ele>347.90696690169</ele>
        <time>2021-05-13T19:22:26.058Z</time>
      </trkpt>
      <trkpt lat="46.33818" lon="2.76134">
        <ele>348.45269591024</ele>
        <time>2021-05-13T19:22:26.609Z</time>
      </trkpt>
      <trkpt lat="46.33808" lon="2.76137">
        <ele>348.98246318203</ele>
        <time>2021-05-13T19:22:27.162Z</time>
      </trkpt>
      <trkpt lat="46.33774" lon="2.76153">
        <ele>349.55691936131</ele>
        <time>2021-05-13T19:22:27.721Z</time>
      </trkpt>
      <trkpt lat="46.3374" lon="2.76156">
        <ele>350.18727132983</ele>
        <time>2021-05-13T19:22:28.285Z</time>
      </trkpt>
      <trkpt lat="46.33718" lon="2.76158">
        <ele>350.7681726788</ele>
        <time>2021-05-13T19:22:28.853Z</time>
      </trkpt>
      <trkpt lat="46.33675" lon="2.76165">
        <ele>351.16129173727</ele>
        <time>2021-05-13T19:22:29.428Z</time>
      </trkpt>
      <trkpt lat="46.33646" lon="2.76166">
        <ele>351.60987888462</ele>
        <time>2021-05-13T19:22:30.007Z</time>
      </trkpt>
      <trkpt lat="46.33624" lon="2.76166">
        <ele>352.08612225148</ele>
        <time>2021-05-13T19:22:30.590Z</time>
      </trkpt>
      <trkpt lat="46.33611" lon="2.76169">
        <ele>352.54484358882</ele>
        <time>2021-05-13T19:22:31.175Z</time>
      </trkpt>
      <trkpt lat="46.33585" lon="2.76176">
        <ele>353.07136358704</ele>
        <time>2021-05-13T19:22:31.764Z</time>
      </trkpt>
      <trkpt lat="46.33574" lon="2.76176">
        <ele>353.49404488744</ele>
        <time>2021-05-13T19:22:32.355Z</time>
      </trkpt>
      <trkpt lat="46.33549" lon="2.7617">
        <ele>353.92320295059</ele>
        <time>2021-05-13T19:22:32.950Z</time>
      </trkpt>
      <trkpt lat="46.33529" lon="2.76164">
        <ele>354.32650536557</ele>
        <time>2021-05-13T19:22:33.548Z</time>
      </trkpt>
      <trkpt lat="46.33512" lon="2.7616">
        <ele>354.60407324233</ele>
        <time>2021-05-13T19:22:34.149Z</time>
      </trkpt>
      <trkpt lat="46.335" lon="2.76159">
        <ele>354.79047496953</ele>
        <time>2021-05-13T19:22:34.752Z</time>
      </trkpt>
      <trkpt lat="46.33494" lon="2.76158">
        <ele>354.91019909092</ele>
        <time>2021-05-13T19:22:35.356Z</time>
      </trkpt>
      <trkpt lat="46.33491" lon="2.76155">
        <ele>354.96135446067</ele>
        <time>2021-05-13T19:22:35.960Z</time>
      </trkpt>
      <trkpt lat="46.33488" lon="2.7615">
        <ele>354.94832575199</ele>
        <time>2021-05-13T19:22:36.565Z</time>
      </trkpt>
      <trkpt lat="46.33475" lon="2.76121">
        <ele>354.71715999362</ele>
        <time>2021-05-13T19:22:37.174Z</time>
      </trkpt>
      <trkpt lat="46.33458" lon="2.76078">
        <ele>354.53896464027</ele>
        <time>2021-05-13T19:22:37.788Z</time>
      </trkpt>
      <trkpt lat="46.33449" lon="2.76032">
        <ele>354.26840892267</ele>
        <time>2021-05-13T19:22:38.408Z</time>
      </trkpt>
      <trkpt lat="46.33449" lon="2.76029">
        <ele>353.97816114835</ele>
        <time>2021-05-13T19:22:39.028Z</time>
      </trkpt>
      <trkpt lat="46.33448" lon="2.76023">
        <ele>353.28533035401</ele>
        <time>2021-05-13T19:22:39.649Z</time>
      </trkpt>
      <trkpt lat="46.3343" lon="2.76026">
        <ele>352.94014747154</ele>
        <time>2021-05-13T19:22:40.273Z</time>
      </trkpt>
      <trkpt lat="46.33383" lon="2.76035">
        <ele>352.53648387689</ele>
        <time>2021-05-13T19:22:40.904Z</time>
      </trkpt>
      <trkpt lat="46.33348" lon="2.76043">
        <ele>352.07986703462</ele>
        <time>2021-05-13T19:22:41.541Z</time>
      </trkpt>
      <trkpt lat="46.33325" lon="2.76051">
        <ele>351.65533729203</ele>
        <time>2021-05-13T19:22:42.182Z</time>
      </trkpt>
      <trkpt lat="46.33296" lon="2.76064">
        <ele>351.27157330342</ele>
        <time>2021-05-13T19:22:42.828Z</time>
      </trkpt>
      <trkpt lat="46.33265" lon="2.76082">
        <ele>350.88738047651</ele>
        <time>2021-05-13T19:22:43.479Z</time>
      </trkpt>
      <trkpt lat="46.33204" lon="2.76138">
        <ele>350.32971596753</ele>
        <time>2021-05-13T19:22:44.141Z</time>
      </trkpt>
      <trkpt lat="46.33184" lon="2.76153">
        <ele>350.02031859281</ele>
        <time>2021-05-13T19:22:44.807Z</time>
      </trkpt>
      <trkpt lat="46.33144" lon="2.76174">
        <ele>349.80755099457</ele>
        <time>2021-05-13T19:22:45.480Z</time>
      </trkpt>
      <trkpt lat="46.33121" lon="2.76188">
        <ele>349.65297710787</ele>
        <time>2021-05-13T19:22:46.157Z</time>
      </trkpt>
      <trkpt lat="46.3311" lon="2.76198">
        <ele>349.61927320006</ele>
        <time>2021-05-13T19:22:46.836Z</time>
      </trkpt>
      <trkpt lat="46.33082" lon="2.76206">
        <ele>349.65077061678</ele>
        <time>2021-05-13T19:22:47.520Z</time>
      </trkpt>
      <trkpt lat="46.3305" lon="2.76218">
        <ele>349.83963617359</ele>
        <time>2021-05-13T19:22:48.209Z</time>
      </trkpt>
      <trkpt lat="46.33005" lon="2.76241">
        <ele>350.30893971618</ele>
        <time>2021-05-13T19:22:48.905Z</time>
      </trkpt>
      <trkpt lat="46.32916" lon="2.76271">
        <ele>350.77381679757</ele>
        <time>2021-05-13T19:22:49.616Z</time>
      </trkpt>
      <trkpt lat="46.32861" lon="2.76289">
        <ele>351.25047324384</ele>
        <time>2021-05-13T19:22:50.336Z</time>
      </trkpt>
      <trkpt lat="46.32842" lon="2.76293">
        <ele>351.80588934051</ele>
        <time>2021-05-13T19:22:51.059Z</time>
      </trkpt>
      <trkpt lat="46.32838" lon="2.76292">
        <ele>352.29930825473</ele>
        <time>2021-05-13T19:22:51.783Z</time>
      </trkpt>
      <trkpt lat="46.32838" lon="2.76293">
        <ele>352.77914745915</ele>
        <time>2021-05-13T19:22:52.507Z</time>
      </trkpt>
      <trkpt lat="46.32826" lon="2.76289">
        <ele>353.3068812271</ele>
        <time>2021-05-13T19:22:53.233Z</time>
      </trkpt>
      <trkpt lat="46.32814" lon="2.76281">
        <ele>353.77003684362</ele>
        <time>2021-05-13T19:22:53.961Z</time>
      </trkpt>
      <trkpt lat="46.32776" lon="2.76256">
        <ele>354.15519838156</ele>
        <time>2021-05-13T19:22:54.696Z</time>
      </trkpt>
      <trkpt lat="46.32726" lon="2.76232">
        <ele>354.4662739495</ele>
        <time>2021-05-13T19:22:55.439Z</time>
      </trkpt>
      <trkpt lat="46.32689" lon="2.76218">
        <ele>354.80425606641</ele>
        <time>2021-05-13T19:22:56.188Z</time>
      </trkpt>
      <trkpt lat="46.32676" lon="2.76215">
        <ele>354.9360815671</ele>
        <time>2021-05-13T19:22:56.939Z</time>
      </trkpt>
      <trkpt lat="46.32646" lon="2.76208">
        <ele>354.94457795206</ele>
        <time>2021-05-13T19:22:57.695Z</time>
      </trkpt>
      <trkpt lat="46.32551" lon="2.76169">
        <ele>354.98483861681</ele>
        <time>2021-05-13T19:22:58.467Z</time>
      </trkpt>
      <trkpt lat="46.32498" lon="2.76143">
        <ele>354.81992629613</ele>
        <time>2021-05-13T19:22:59.248Z</time>
      </trkpt>
      <trkpt lat="46.32444" lon="2.7611">
        <ele>354.38221453732</ele>
        <time>2021-05-13T19:23:00.038Z</time>
      </trkpt>
      <trkpt lat="46.32368" lon="2.76062">
        <ele>353.87776165272</ele>
        <time>2021-05-13T19:23:00.842Z</time>
      </trkpt>
      <trkpt lat="46.32346" lon="2.7605">
        <ele>353.31981643107</ele>
        <time>2021-05-13T19:23:01.649Z</time>
      </trkpt>
      <trkpt lat="46.32334" lon="2.7604">
        <ele>352.66247763596</ele>
        <time>2021-05-13T19:23:02.459Z</time>
      </trkpt>
      <trkpt lat="46.3231" lon="2.76014">
        <ele>351.91390831446</ele>
        <time>2021-05-13T19:23:03.273Z</time>
      </trkpt>
      <trkpt lat="46.32279" lon="2.75975">
        <ele>351.10358071451</ele>
        <time>2021-05-13T19:23:04.094Z</time>
      </trkpt>
      <trkpt lat="46.32247" lon="2.75935">
        <ele>350.09161986874</ele>
        <time>2021-05-13T19:23:04.922Z</time>
      </trkpt>
      <trkpt lat="46.32201" lon="2.7588">
        <ele>348.82583596786</ele>
        <time>2021-05-13T19:23:05.759Z</time>
      </trkpt>
      <trkpt lat="46.32141" lon="2.75807">
        <ele>347.75590590925</ele>
        <time>2021-05-13T19:23:06.609Z</time>
      </trkpt>
      <trkpt lat="46.32125" lon="2.75782">
        <ele>346.67611558088</ele>
        <time>2021-05-13T19:23:07.463Z</time>
      </trkpt>
      <trkpt lat="46.32116" lon="2.75763">
        <ele>345.57876267403</ele>
        <time>2021-05-13T19:23:08.319Z</time>
      </trkpt>
      <trkpt lat="46.32106" lon="2.75718">
        <ele>344.36421081667</ele>
        <time>2021-05-13T19:23:09.180Z</time>
      </trkpt>
      <trkpt lat="46.32101" lon="2.7569">
        <ele>343.30883709639</ele>
        <time>2021-05-13T19:23:10.045Z</time>
      </trkpt>
      <trkpt lat="46.32098" lon="2.75659">
        <ele>341.22058952841</ele>
        <time>2021-05-13T19:23:10.913Z</time>
      </trkpt>
      <trkpt lat="46.32099" lon="2.75634">
        <ele>340.18775343733</ele>
        <time>2021-05-13T19:23:11.784Z</time>
      </trkpt>
      <trkpt lat="46.32104" lon="2.75603">
        <ele>339.17061982847</ele>
        <time>2021-05-13T19:23:12.658Z</time>
      </trkpt>
      <trkpt lat="46.32102" lon="2.75587">
        <ele>338.25465515887</ele>
        <time>2021-05-13T19:23:13.534Z</time>
      </trkpt>
      <trkpt lat="46.32099" lon="2.7558">
        <ele>337.40367653116</ele>
        <time>2021-05-13T19:23:14.411Z</time>
      </trkpt>
      <trkpt lat="46.32086" lon="2.75567">
        <ele>336.64424607372</ele>
        <time>2021-05-13T19:23:15.291Z</time>
      </trkpt>
      <trkpt lat="46.3205" lon="2.75538">
        <ele>335.86042248952</ele>
        <time>2021-05-13T19:23:16.177Z</time>
      </trkpt>
      <trkpt lat="46.3204" lon="2.75533">
        <ele>335.0544742727</ele>
        <time>2021-05-13T19:23:17.065Z</time>
      </trkpt>
      <trkpt lat="46.32032" lon="2.75533">
        <ele>334.33201874349</ele>
        <time>2021-05-13T19:23:17.954Z</time>
      </trkpt>
      <trkpt lat="46.32015" lon="2.7554">
        <ele>333.61235410889</ele>
        <time>2021-05-13T19:23:18.846Z</time>
      </trkpt>
      <trkpt lat="46.31988" lon="2.75558">
        <ele>332.98686203986</ele>
        <time>2021-05-13T19:23:19.743Z</time>
      </trkpt>
      <trkpt lat="46.31981" lon="2.75559">
        <ele>332.46210251441</ele>
        <time>2021-05-13T19:23:20.641Z</time>
      </trkpt>
      <trkpt lat="46.31952" lon="2.75558">
        <ele>331.93973654108</ele>
        <time>2021-05-13T19:23:21.544Z</time>
      </trkpt>
      <trkpt lat="46.3191" lon="2.75549">
        <ele>331.6057819417</ele>
        <time>2021-05-13T19:23:22.453Z</time>
      </trkpt>
      <trkpt lat="46.31897" lon="2.75548">
        <ele>331.33269983781</ele>
        <time>2021-05-13T19:23:23.365Z</time>
      </trkpt>
      <trkpt lat="46.31884" lon="2.75552">
        <ele>331.11405122074</ele>
        <time>2021-05-13T19:23:24.279Z</time>
      </trkpt>
      <trkpt lat="46.31867" lon="2.75564">
        <ele>330.90690383363</ele>
        <time>2021-05-13T19:23:25.196Z</time>
      </trkpt>
      <trkpt lat="46.31861" lon="2.7555">
        <ele>330.78784730288</ele>
        <time>2021-05-13T19:23:26.115Z</time>
      </trkpt>
      <trkpt lat="46.31854" lon="2.75532">
        <ele>330.65546820768</ele>
        <time>2021-05-13T19:23:27.036Z</time>
      </trkpt>
      <trkpt lat="46.31852" lon="2.75517">
        <ele>330.63630010464</ele>
        <time>2021-05-13T19:23:27.959Z</time>
      </trkpt>
      <trkpt lat="46.31854" lon="2.75501">
        <ele>330.63319076108</ele>
        <time>2021-05-13T19:23:28.883Z</time>
      </trkpt>
      <trkpt lat="46.3184" lon="2.75507">
        <ele>330.77497953297</ele>
        <time>2021-05-13T19:23:29.810Z</time>
      </trkpt>
      <trkpt lat="46.31777" lon="2.75524">
        <ele>330.76548868114</ele>
        <time>2021-05-13T19:23:30.747Z</time>
      </trkpt>
      <trkpt lat="46.31757" lon="2.75524">
        <ele>330.91570776753</ele>
        <time>2021-05-13T19:23:31.687Z</time>
      </trkpt>
      <trkpt lat="46.31744" lon="2.75522">
        <ele>331.14179542609</ele>
        <time>2021-05-13T19:23:32.629Z</time>
      </trkpt>
      <trkpt lat="46.31731" lon="2.75517">
        <ele>331.50001694868</ele>
        <time>2021-05-13T19:23:33.573Z</time>
      </trkpt>
      <trkpt lat="46.31712" lon="2.75506">
        <ele>331.99064737199</ele>
        <time>2021-05-13T19:23:34.521Z</time>
      </trkpt>
      <trkpt lat="46.31691" lon="2.75489">
        <ele>332.56944594491</ele>
        <time>2021-05-13T19:23:35.472Z</time>
      </trkpt>
      <trkpt lat="46.31661" lon="2.75464">
        <ele>333.27702038522</ele>
        <time>2021-05-13T19:23:36.429Z</time>
      </trkpt>
      <trkpt lat="46.31652" lon="2.75457">
        <ele>334.01700938369</ele>
        <time>2021-05-13T19:23:37.388Z</time>
      </trkpt>
      <trkpt lat="46.31639" lon="2.75452">
        <ele>334.87704989924</ele>
        <time>2021-05-13T19:23:38.349Z</time>
      </trkpt>
      <trkpt lat="46.31617" lon="2.75443">
        <ele>335.90962475541</ele>
        <time>2021-05-13T19:23:39.313Z</time>
      </trkpt>
      <trkpt lat="46.31592" lon="2.75436">
        <ele>337.09557995059</ele>
        <time>2021-05-13T19:23:40.282Z</time>
      </trkpt>
      <trkpt lat="46.3154" lon="2.75422">
        <ele>338.41181241484</ele>
        <time>2021-05-13T19:23:41.259Z</time>
      </trkpt>
      <trkpt lat="46.31521" lon="2.75415">
        <ele>339.84959829954</ele>
        <time>2021-05-13T19:23:42.239Z</time>
      </trkpt>
      <trkpt lat="46.31491" lon="2.75408">
        <ele>341.4899938081</ele>
        <time>2021-05-13T19:23:43.224Z</time>
      </trkpt>
      <trkpt lat="46.31463" lon="2.75406">
        <ele>343.04195215654</ele>
        <time>2021-05-13T19:23:44.214Z</time>
      </trkpt>
      <trkpt lat="46.31451" lon="2.7541">
        <ele>344.74891093343</ele>
        <time>2021-05-13T19:23:45.205Z</time>
      </trkpt>
      <trkpt lat="46.31436" lon="2.75409">
        <ele>346.57335158004</ele>
        <time>2021-05-13T19:23:46.199Z</time>
      </trkpt>
      <trkpt lat="46.31398" lon="2.7541">
        <ele>348.65849549895</ele>
        <time>2021-05-13T19:23:47.199Z</time>
      </trkpt>
      <trkpt lat="46.31334" lon="2.75411">
        <ele>350.9260424733</ele>
        <time>2021-05-13T19:23:48.209Z</time>
      </trkpt>
      <trkpt lat="46.31249" lon="2.75409">
        <ele>353.02547614549</ele>
        <time>2021-05-13T19:23:49.233Z</time>
      </trkpt>
      <trkpt lat="46.31101" lon="2.75394">
        <ele>355.93579572961</ele>
        <time>2021-05-13T19:23:50.281Z</time>
      </trkpt>
      <trkpt lat="46.31075" lon="2.75393">
        <ele>357.82589508737</ele>
        <time>2021-05-13T19:23:51.333Z</time>
      </trkpt>
      <trkpt lat="46.31065" lon="2.75396">
        <ele>359.53237343532</ele>
        <time>2021-05-13T19:23:52.386Z</time>
      </trkpt>
      <trkpt lat="46.31032" lon="2.75416">
        <ele>361.04433478262</ele>
        <time>2021-05-13T19:23:53.445Z</time>
      </trkpt>
      <trkpt lat="46.3102" lon="2.75423">
        <ele>362.38887062822</ele>
        <time>2021-05-13T19:23:54.506Z</time>
      </trkpt>
      <trkpt lat="46.3101" lon="2.75425">
        <ele>363.50981945609</ele>
        <time>2021-05-13T19:23:55.569Z</time>
      </trkpt>
      <trkpt lat="46.30999" lon="2.75423">
        <ele>364.40281333949</ele>
        <time>2021-05-13T19:23:56.634Z</time>
      </trkpt>
      <trkpt lat="46.30992" lon="2.7542">
        <ele>365.01166303816</ele>
        <time>2021-05-13T19:23:57.700Z</time>
      </trkpt>
      <trkpt lat="46.30939" lon="2.75386">
        <ele>365.50279855619</ele>
        <time>2021-05-13T19:23:58.775Z</time>
      </trkpt>
      <trkpt lat="46.30924" lon="2.75378">
        <ele>365.57781483101</ele>
        <time>2021-05-13T19:23:59.853Z</time>
      </trkpt>
      <trkpt lat="46.3091" lon="2.75374">
        <ele>365.36224191638</ele>
        <time>2021-05-13T19:24:00.933Z</time>
      </trkpt>
      <trkpt lat="46.3091" lon="2.75366">
        <ele>364.90496056454</ele>
        <time>2021-05-13T19:24:02.014Z</time>
      </trkpt>
      <trkpt lat="46.30907" lon="2.75427">
        <ele>362.90922428635</ele>
        <time>2021-05-13T19:24:03.102Z</time>
      </trkpt>
      <trkpt lat="46.30905" lon="2.75436">
        <ele>361.76921080108</ele>
        <time>2021-05-13T19:24:04.191Z</time>
      </trkpt>
      <trkpt lat="46.30906" lon="2.75446">
        <ele>360.49678707638</ele>
        <time>2021-05-13T19:24:05.281Z</time>
      </trkpt>
      <trkpt lat="46.30907" lon="2.75535">
        <ele>359.16262268814</ele>
        <time>2021-05-13T19:24:06.381Z</time>
      </trkpt>
      <trkpt lat="46.3091" lon="2.75769">
        <ele>356.76058654609</ele>
        <time>2021-05-13T19:24:07.507Z</time>
      </trkpt>
      <trkpt lat="46.30907" lon="2.75795">
        <ele>355.34817125451</ele>
        <time>2021-05-13T19:24:08.635Z</time>
      </trkpt>
      <trkpt lat="46.30899" lon="2.7582">
        <ele>354.01399374344</ele>
        <time>2021-05-13T19:24:09.767Z</time>
      </trkpt>
      <trkpt lat="46.30875" lon="2.75856">
        <ele>352.69194884067</ele>
        <time>2021-05-13T19:24:10.904Z</time>
      </trkpt>
      <trkpt lat="46.30834" lon="2.75916">
        <ele>351.78169680382</ele>
        <time>2021-05-13T19:24:12.050Z</time>
      </trkpt>
      <trkpt lat="46.30827" lon="2.75935">
        <ele>351.14016202155</ele>
        <time>2021-05-13T19:24:13.199Z</time>
      </trkpt>
      <trkpt lat="46.30826" lon="2.75953">
        <ele>350.63468110769</ele>
        <time>2021-05-13T19:24:14.350Z</time>
      </trkpt>
      <trkpt lat="46.30853" lon="2.76096">
        <ele>350.53247581587</ele>
        <time>2021-05-13T19:24:15.517Z</time>
      </trkpt>
      <trkpt lat="46.30859" lon="2.76116">
        <ele>350.34279244917</ele>
        <time>2021-05-13T19:24:16.687Z</time>
      </trkpt>
      <trkpt lat="46.30865" lon="2.76131">
        <ele>350.31124562451</ele>
        <time>2021-05-13T19:24:17.859Z</time>
      </trkpt>
      <trkpt lat="46.30876" lon="2.76142">
        <ele>350.41286370104</ele>
        <time>2021-05-13T19:24:19.033Z</time>
      </trkpt>
      <trkpt lat="46.30884" lon="2.76145">
        <ele>350.62874565498</ele>
        <time>2021-05-13T19:24:20.208Z</time>
      </trkpt>
      <trkpt lat="46.3089" lon="2.76145">
        <ele>350.9963532626</ele>
        <time>2021-05-13T19:24:21.384Z</time>
      </trkpt>
      <trkpt lat="46.30908" lon="2.76142">
        <ele>351.51457013926</ele>
        <time>2021-05-13T19:24:22.563Z</time>
      </trkpt>
      <trkpt lat="46.30913" lon="2.76143">
        <ele>352.12031509512</ele>
        <time>2021-05-13T19:24:23.743Z</time>
      </trkpt>
      <trkpt lat="46.30922" lon="2.7615">
        <ele>352.84044025637</ele>
        <time>2021-05-13T19:24:24.924Z</time>
      </trkpt>
      <trkpt lat="46.30927" lon="2.76159">
        <ele>353.66394629485</ele>
        <time>2021-05-13T19:24:26.107Z</time>
      </trkpt>
      <trkpt lat="46.3093" lon="2.76173">
        <ele>354.58930304824</ele>
        <time>2021-05-13T19:24:27.291Z</time>
      </trkpt>
      <trkpt lat="46.30926" lon="2.76219">
        <ele>355.76153801712</ele>
        <time>2021-05-13T19:24:28.480Z</time>
      </trkpt>
      <trkpt lat="46.30919" lon="2.76231">
        <ele>356.86931133206</ele>
        <time>2021-05-13T19:24:29.671Z</time>
      </trkpt>
      <trkpt lat="46.30914" lon="2.76236">
        <ele>357.97585159732</ele>
        <time>2021-05-13T19:24:30.863Z</time>
      </trkpt>
      <trkpt lat="46.30899" lon="2.76241">
        <ele>359.15266601199</ele>
        <time>2021-05-13T19:24:32.058Z</time>
      </trkpt>
      <trkpt lat="46.30878" lon="2.76249">
        <ele>360.35862729186</ele>
        <time>2021-05-13T19:24:33.256Z</time>
      </trkpt>
      <trkpt lat="46.30873" lon="2.76252">
        <ele>361.53845387321</ele>
        <time>2021-05-13T19:24:34.455Z</time>
      </trkpt>
      <trkpt lat="46.30865" lon="2.76263">
        <ele>362.73823804076</ele>
        <time>2021-05-13T19:24:35.656Z</time>
      </trkpt>
      <trkpt lat="46.30858" lon="2.76296">
        <ele>363.94208160325</ele>
        <time>2021-05-13T19:24:36.861Z</time>
      </trkpt>
      <trkpt lat="46.30844" lon="2.76429">
        <ele>365.54051529186</ele>
        <time>2021-05-13T19:24:38.080Z</time>
      </trkpt>
      <trkpt lat="46.30841" lon="2.7648">
        <ele>368.26280372394</ele>
        <time>2021-05-13T19:24:39.305Z</time>
      </trkpt>
      <trkpt lat="46.30844" lon="2.76536">
        <ele>369.5276377375</ele>
        <time>2021-05-13T19:24:40.536Z</time>
      </trkpt>
      <trkpt lat="46.30845" lon="2.76553">
        <ele>370.63406448147</ele>
        <time>2021-05-13T19:24:41.769Z</time>
      </trkpt>
      <trkpt lat="46.30843" lon="2.76577">
        <ele>371.6938640927</ele>
        <time>2021-05-13T19:24:43.005Z</time>
      </trkpt>
      <trkpt lat="46.30827" lon="2.76635">
        <ele>372.85047066363</ele>
        <time>2021-05-13T19:24:44.248Z</time>
      </trkpt>
      <trkpt lat="46.30815" lon="2.76675">
        <ele>373.77483590276</ele>
        <time>2021-05-13T19:24:45.496Z</time>
      </trkpt>
      <trkpt lat="46.30808" lon="2.76719">
        <ele>374.62947616527</ele>
        <time>2021-05-13T19:24:46.749Z</time>
      </trkpt>
      <trkpt lat="46.30798" lon="2.76824">
        <ele>375.66876508068</ele>
        <time>2021-05-13T19:24:48.013Z</time>
      </trkpt>
      <trkpt lat="46.30793" lon="2.7686">
        <ele>376.46245864342</ele>
        <time>2021-05-13T19:24:49.282Z</time>
      </trkpt>
      <trkpt lat="46.30783" lon="2.76902">
        <ele>377.09561990962</ele>
        <time>2021-05-13T19:24:50.555Z</time>
      </trkpt>
      <trkpt lat="46.30774" lon="2.76934">
        <ele>377.64320500521</ele>
        <time>2021-05-13T19:24:51.832Z</time>
      </trkpt>
      <trkpt lat="46.3077" lon="2.76945">
        <ele>378.1982313812</ele>
        <time>2021-05-13T19:24:53.111Z</time>
      </trkpt>
      <trkpt lat="46.3076" lon="2.76996">
        <ele>378.85991981056</ele>
        <time>2021-05-13T19:24:54.396Z</time>
      </trkpt>
      <trkpt lat="46.3075" lon="2.77111">
        <ele>379.48614294932</ele>
        <time>2021-05-13T19:24:55.693Z</time>
      </trkpt>
      <trkpt lat="46.30747" lon="2.77149">
        <ele>379.89913085631</ele>
        <time>2021-05-13T19:24:56.995Z</time>
      </trkpt>
      <trkpt lat="46.3074" lon="2.772">
        <ele>380.25148155006</ele>
        <time>2021-05-13T19:24:58.302Z</time>
      </trkpt>
      <trkpt lat="46.30732" lon="2.77277">
        <ele>380.59987259168</ele>
        <time>2021-05-13T19:24:59.618Z</time>
      </trkpt>
      <trkpt lat="46.30732" lon="2.77317">
        <ele>381.05489389891</ele>
        <time>2021-05-13T19:25:00.938Z</time>
      </trkpt>
      <trkpt lat="46.30733" lon="2.7735">
        <ele>381.38530136825</ele>
        <time>2021-05-13T19:25:02.262Z</time>
      </trkpt>
      <trkpt lat="46.30731" lon="2.77396">
        <ele>381.73050385713</ele>
        <time>2021-05-13T19:25:03.591Z</time>
      </trkpt>
      <trkpt lat="46.30728" lon="2.77412">
        <ele>382.04288184847</ele>
        <time>2021-05-13T19:25:04.922Z</time>
      </trkpt>
      <trkpt lat="46.30702" lon="2.77478">
        <ele>382.41288187821</ele>
        <time>2021-05-13T19:25:06.261Z</time>
      </trkpt>
      <trkpt lat="46.30686" lon="2.77527">
        <ele>382.75499513293</ele>
        <time>2021-05-13T19:25:07.607Z</time>
      </trkpt>
      <trkpt lat="46.30674" lon="2.77552">
        <ele>383.1411979842</ele>
        <time>2021-05-13T19:25:08.956Z</time>
      </trkpt>
      <trkpt lat="46.30663" lon="2.77567">
        <ele>383.60560850085</ele>
        <time>2021-05-13T19:25:10.307Z</time>
      </trkpt>
      <trkpt lat="46.30629" lon="2.77605">
        <ele>384.1736520875</ele>
        <time>2021-05-13T19:25:11.665Z</time>
      </trkpt>
      <trkpt lat="46.30598" lon="2.77634">
        <ele>384.69793384423</ele>
        <time>2021-05-13T19:25:13.029Z</time>
      </trkpt>
      <trkpt lat="46.30554" lon="2.77673">
        <ele>385.03743568575</ele>
        <time>2021-05-13T19:25:14.401Z</time>
      </trkpt>
      <trkpt lat="46.30531" lon="2.77701">
        <ele>385.54447153</ele>
        <time>2021-05-13T19:25:15.778Z</time>
      </trkpt>
      <trkpt lat="46.30523" lon="2.77713">
        <ele>386.09324679442</ele>
        <time>2021-05-13T19:25:17.157Z</time>
      </trkpt>
      <trkpt lat="46.30502" lon="2.77767">
        <ele>386.7076035828</ele>
        <time>2021-05-13T19:25:18.543Z</time>
      </trkpt>
      <trkpt lat="46.30483" lon="2.77817">
        <ele>387.54134095247</ele>
        <time>2021-05-13T19:25:19.935Z</time>
      </trkpt>
      <trkpt lat="46.30464" lon="2.77854">
        <ele>388.3204673116</ele>
        <time>2021-05-13T19:25:21.332Z</time>
      </trkpt>
      <trkpt lat="46.30444" lon="2.7789">
        <ele>389.04516930998</ele>
        <time>2021-05-13T19:25:22.734Z</time>
      </trkpt>
      <trkpt lat="46.30414" lon="2.77935">
        <ele>389.72134203425</ele>
        <time>2021-05-13T19:25:24.143Z</time>
      </trkpt>
      <trkpt lat="46.30393" lon="2.77971">
        <ele>390.44390565012</ele>
        <time>2021-05-13T19:25:25.558Z</time>
      </trkpt>
      <trkpt lat="46.30367" lon="2.7802">
        <ele>391.1400505644</ele>
        <time>2021-05-13T19:25:26.979Z</time>
      </trkpt>
      <trkpt lat="46.30321" lon="2.78094">
        <ele>391.94356036796</ele>
        <time>2021-05-13T19:25:28.411Z</time>
      </trkpt>
      <trkpt lat="46.30302" lon="2.78133">
        <ele>392.61908903641</ele>
        <time>2021-05-13T19:25:29.849Z</time>
      </trkpt>
      <trkpt lat="46.30289" lon="2.78171">
        <ele>393.25194818375</ele>
        <time>2021-05-13T19:25:31.291Z</time>
      </trkpt>
      <trkpt lat="46.30288" lon="2.78186">
        <ele>393.82333369169</ele>
        <time>2021-05-13T19:25:32.735Z</time>
      </trkpt>
      <trkpt lat="46.30286" lon="2.78195">
        <ele>394.8796635672</ele>
        <time>2021-05-13T19:25:34.180Z</time>
      </trkpt>
      <trkpt lat="46.30285" lon="2.78196">
        <ele>395.36717346659</ele>
        <time>2021-05-13T19:25:35.625Z</time>
      </trkpt>
      <trkpt lat="46.30283" lon="2.78197">
        <ele>395.83268145341</ele>
        <time>2021-05-13T19:25:37.071Z</time>
      </trkpt>
      <trkpt lat="46.30281" lon="2.78203">
        <ele>396.27514207958</ele>
        <time>2021-05-13T19:25:38.517Z</time>
      </trkpt>
      <trkpt lat="46.30263" lon="2.78201">
        <ele>396.7390336206</ele>
        <time>2021-05-13T19:25:39.966Z</time>
      </trkpt>
      <trkpt lat="46.30222" lon="2.78185">
        <ele>397.18158150474</ele>
        <time>2021-05-13T19:25:41.422Z</time>
      </trkpt>
      <trkpt lat="46.30184" lon="2.78175">
        <ele>397.57809765029</ele>
        <time>2021-05-13T19:25:42.884Z</time>
      </trkpt>
      <trkpt lat="46.30159" lon="2.78174">
        <ele>398.04778535849</ele>
        <time>2021-05-13T19:25:44.350Z</time>
      </trkpt>
      <trkpt lat="46.30148" lon="2.78173">
        <ele>398.38792365082</ele>
        <time>2021-05-13T19:25:45.818Z</time>
      </trkpt>
      <trkpt lat="46.30141" lon="2.78169">
        <ele>398.678178455</ele>
        <time>2021-05-13T19:25:47.287Z</time>
      </trkpt>
      <trkpt lat="46.3014" lon="2.78179">
        <ele>398.95921511506</ele>
        <time>2021-05-13T19:25:48.757Z</time>
      </trkpt>
      <trkpt lat="46.30139" lon="2.78198">
        <ele>399.23378620829</ele>
        <time>2021-05-13T19:25:50.230Z</time>
      </trkpt>
      <trkpt lat="46.3014" lon="2.78213">
        <ele>399.44338474816</ele>
        <time>2021-05-13T19:25:51.704Z</time>
      </trkpt>
      <trkpt lat="46.30151" lon="2.7821">
        <ele>399.56330139615</ele>
        <time>2021-05-13T19:25:53.180Z</time>
      </trkpt>
      <trkpt lat="46.3014" lon="2.78213">
        <ele>399.44338474816</ele>
        <time>2021-05-13T19:25:54.658Z</time>
      </trkpt>
      <trkpt lat="46.30126" lon="2.7824">
        <ele>400.00960310462</ele>
        <time>2021-05-13T19:25:56.140Z</time>
      </trkpt>
      <trkpt lat="46.30117" lon="2.78273">
        <ele>400.04463798588</ele>
        <time>2021-05-13T19:25:57.625Z</time>
      </trkpt>
      <trkpt lat="46.30095" lon="2.78291">
        <ele>400.07650421497</ele>
        <time>2021-05-13T19:25:59.115Z</time>
      </trkpt>
      <trkpt lat="46.30052" lon="2.78328">
        <ele>400.12307340475</ele>
        <time>2021-05-13T19:26:00.613Z</time>
      </trkpt>
      <trkpt lat="46.30022" lon="2.78357">
        <ele>400.11881851052</ele>
        <time>2021-05-13T19:26:02.116Z</time>
      </trkpt>
      <trkpt lat="46.29965" lon="2.78421">
        <ele>400.29032274546</ele>
        <time>2021-05-13T19:26:03.631Z</time>
      </trkpt>
      <trkpt lat="46.29914" lon="2.78475">
        <ele>400.45277904033</ele>
        <time>2021-05-13T19:26:05.156Z</time>
      </trkpt>
      <trkpt lat="46.29806" lon="2.78613">
        <ele>400.48245022356</ele>
        <time>2021-05-13T19:26:06.704Z</time>
      </trkpt>
      <trkpt lat="46.29744" lon="2.78693">
        <ele>400.72313326046</ele>
        <time>2021-05-13T19:26:08.265Z</time>
      </trkpt>
      <trkpt lat="46.29722" lon="2.78718">
        <ele>400.9589427604</ele>
        <time>2021-05-13T19:26:09.831Z</time>
      </trkpt>
      <trkpt lat="46.29697" lon="2.78742">
        <ele>401.16674486392</ele>
        <time>2021-05-13T19:26:11.402Z</time>
      </trkpt>
      <trkpt lat="46.29665" lon="2.78766">
        <ele>401.24797741595</ele>
        <time>2021-05-13T19:26:12.978Z</time>
      </trkpt>
      <trkpt lat="46.29637" lon="2.78781">
        <ele>401.34633405229</ele>
        <time>2021-05-13T19:26:14.559Z</time>
      </trkpt>
      <trkpt lat="46.29617" lon="2.78794">
        <ele>401.47342176829</ele>
        <time>2021-05-13T19:26:16.144Z</time>
      </trkpt>
      <trkpt lat="46.29605" lon="2.78785">
        <ele>401.66548789146</ele>
        <time>2021-05-13T19:26:17.731Z</time>
      </trkpt>
      <trkpt lat="46.29605" lon="2.78786">
        <ele>401.81354937317</ele>
        <time>2021-05-13T19:26:19.318Z</time>
      </trkpt>
      <trkpt lat="46.29617" lon="2.78794">
        <ele>401.47342176829</ele>
        <time>2021-05-13T19:26:20.907Z</time>
      </trkpt>
      <trkpt lat="46.29601" lon="2.78801">
        <ele>402.06405114548</ele>
        <time>2021-05-13T19:26:22.499Z</time>
      </trkpt>
      <trkpt lat="46.29583" lon="2.78811">
        <ele>402.28949874036</ele>
        <time>2021-05-13T19:26:24.094Z</time>
      </trkpt>
      <trkpt lat="46.2956" lon="2.78829">
        <ele>402.44941820826</ele>
        <time>2021-05-13T19:26:25.693Z</time>
      </trkpt>
      <trkpt lat="46.29552" lon="2.7885">
        <ele>402.76668764216</ele>
        <time>2021-05-13T19:26:27.295Z</time>
      </trkpt>
      <trkpt lat="46.29535" lon="2.78882">
        <ele>403.08683997939</ele>
        <time>2021-05-13T19:26:28.901Z</time>
      </trkpt>
      <trkpt lat="46.29533" lon="2.78887">
        <ele>403.44153164163</ele>
        <time>2021-05-13T19:26:30.508Z</time>
      </trkpt>
      <trkpt lat="46.29536" lon="2.78893">
        <ele>403.82657727398</ele>
        <time>2021-05-13T19:26:32.116Z</time>
      </trkpt>
      <trkpt lat="46.29539" lon="2.78906">
        <ele>404.23515852911</ele>
        <time>2021-05-13T19:26:33.725Z</time>
      </trkpt>
      <trkpt lat="46.29543" lon="2.7894">
        <ele>404.71768322168</ele>
        <time>2021-05-13T19:26:35.338Z</time>
      </trkpt>
      <trkpt lat="46.29545" lon="2.78986">
        <ele>405.18388216017</ele>
        <time>2021-05-13T19:26:36.956Z</time>
      </trkpt>
      <trkpt lat="46.29544" lon="2.79021">
        <ele>405.65235743408</ele>
        <time>2021-05-13T19:26:38.578Z</time>
      </trkpt>
      <trkpt lat="46.29533" lon="2.79104">
        <ele>406.26750715124</ele>
        <time>2021-05-13T19:26:40.209Z</time>
      </trkpt>
      <trkpt lat="46.29525" lon="2.7917">
        <ele>406.6208851783</ele>
        <time>2021-05-13T19:26:41.848Z</time>
      </trkpt>
      <trkpt lat="46.29523" lon="2.79194">
        <ele>406.85380064917</ele>
        <time>2021-05-13T19:26:43.490Z</time>
      </trkpt>
      <trkpt lat="46.29524" lon="2.79208">
        <ele>406.99493853924</ele>
        <time>2021-05-13T19:26:45.133Z</time>
      </trkpt>
      <trkpt lat="46.29525" lon="2.79212">
        <ele>407.03192934494</ele>
        <time>2021-05-13T19:26:46.777Z</time>
      </trkpt>
      <trkpt lat="46.29546" lon="2.79299">
        <ele>406.64833141176</ele>
        <time>2021-05-13T19:26:48.431Z</time>
      </trkpt>
      <trkpt lat="46.29569" lon="2.79382">
        <ele>406.25297265111</ele>
        <time>2021-05-13T19:26:50.095Z</time>
      </trkpt>
      <trkpt lat="46.29609" lon="2.7953">
        <ele>405.53259452608</ele>
        <time>2021-05-13T19:26:51.776Z</time>
      </trkpt>
      <trkpt lat="46.29646" lon="2.7963">
        <ele>404.92806806922</ele>
        <time>2021-05-13T19:26:53.470Z</time>
      </trkpt>
      <trkpt lat="46.29645" lon="2.79663">
        <ele>404.24746486731</ele>
        <time>2021-05-13T19:26:55.168Z</time>
      </trkpt>
      <trkpt lat="46.29646" lon="2.79669">
        <ele>403.42666075755</ele>
        <time>2021-05-13T19:26:56.866Z</time>
      </trkpt>
      <trkpt lat="46.29649" lon="2.79671">
        <ele>402.44760248351</ele>
        <time>2021-05-13T19:26:58.565Z</time>
      </trkpt>
      <trkpt lat="46.29661" lon="2.79678">
        <ele>401.29306531968</ele>
        <time>2021-05-13T19:27:00.266Z</time>
      </trkpt>
      <trkpt lat="46.29684" lon="2.79697">
        <ele>399.97478690313</ele>
        <time>2021-05-13T19:27:01.971Z</time>
      </trkpt>
      <trkpt lat="46.29732" lon="2.79741">
        <ele>398.37720425135</ele>
        <time>2021-05-13T19:27:03.685Z</time>
      </trkpt>
      <trkpt lat="46.29785" lon="2.79803">
        <ele>396.6652062727</ele>
        <time>2021-05-13T19:27:05.410Z</time>
      </trkpt>
      <trkpt lat="46.29826" lon="2.79851">
        <ele>394.99348786577</ele>
        <time>2021-05-13T19:27:07.144Z</time>
      </trkpt>
      <trkpt lat="46.29874" lon="2.79902">
        <ele>393.11906138688</ele>
        <time>2021-05-13T19:27:08.887Z</time>
      </trkpt>
      <trkpt lat="46.29917" lon="2.79949">
        <ele>391.25986922838</ele>
        <time>2021-05-13T19:27:10.639Z</time>
      </trkpt>
      <trkpt lat="46.29951" lon="2.79984">
        <ele>389.10097301098</ele>
        <time>2021-05-13T19:27:12.397Z</time>
      </trkpt>
      <trkpt lat="46.30026" lon="2.80057">
        <ele>386.69383506118</ele>
        <time>2021-05-13T19:27:14.170Z</time>
      </trkpt>
      <trkpt lat="46.30062" lon="2.80091">
        <ele>384.20598061284</ele>
        <time>2021-05-13T19:27:15.950Z</time>
      </trkpt>
      <trkpt lat="46.30143" lon="2.80142">
        <ele>381.99802215325</ele>
        <time>2021-05-13T19:27:17.744Z</time>
      </trkpt>
      <trkpt lat="46.30163" lon="2.80155">
        <ele>379.73128479661</ele>
        <time>2021-05-13T19:27:19.541Z</time>
      </trkpt>
      <trkpt lat="46.30163" lon="2.80155">
        <ele>377.48175445033</ele>
        <time>2021-05-13T19:27:21.339Z</time>
      </trkpt>
      <trkpt lat="46.30205" lon="2.80181">
        <ele>374.89681447975</ele>
        <time>2021-05-13T19:27:23.144Z</time>
      </trkpt>
      <trkpt lat="46.30252" lon="2.80216">
        <ele>372.62037372234</ele>
        <time>2021-05-13T19:27:24.957Z</time>
      </trkpt>
      <trkpt lat="46.3028" lon="2.80234">
        <ele>370.38096061922</ele>
        <time>2021-05-13T19:27:26.775Z</time>
      </trkpt>
      <trkpt lat="46.30293" lon="2.80239">
        <ele>368.14888560964</ele>
        <time>2021-05-13T19:27:28.595Z</time>
      </trkpt>
      <trkpt lat="46.30311" lon="2.80256">
        <ele>365.93484658344</ele>
        <time>2021-05-13T19:27:30.419Z</time>
      </trkpt>
      <trkpt lat="46.30355" lon="2.80307">
        <ele>363.7984158411</ele>
        <time>2021-05-13T19:27:32.252Z</time>
      </trkpt>
      <trkpt lat="46.30387" lon="2.80348">
        <ele>361.70550492384</ele>
        <time>2021-05-13T19:27:34.092Z</time>
      </trkpt>
      <trkpt lat="46.30665" lon="2.82142">
        <ele>358.78476152022</ele>
        <time>2021-05-13T19:27:36.136Z</time>
      </trkpt>
      <trkpt lat="46.30645" lon="2.82153">
        <ele>357.39022158359</ele>
        <time>2021-05-13T19:27:38.183Z</time>
      </trkpt>
      <trkpt lat="46.3066" lon="2.82201">
        <ele>356.09931275806</ele>
        <time>2021-05-13T19:27:40.236Z</time>
      </trkpt>
      <trkpt lat="46.30668" lon="2.82232">
        <ele>355.25804870232</ele>
        <time>2021-05-13T19:27:42.293Z</time>
      </trkpt>
      <trkpt lat="46.30672" lon="2.82273">
        <ele>354.74454997682</ele>
        <time>2021-05-13T19:27:44.354Z</time>
      </trkpt>
      <trkpt lat="46.30676" lon="2.82343">
        <ele>354.41764721092</ele>
        <time>2021-05-13T19:27:46.423Z</time>
      </trkpt>
      <trkpt lat="46.30671" lon="2.82368">
        <ele>354.32459094627</ele>
        <time>2021-05-13T19:27:48.495Z</time>
      </trkpt>
      <trkpt lat="46.3067" lon="2.82389">
        <ele>354.47436191796</ele>
        <time>2021-05-13T19:27:50.569Z</time>
      </trkpt>
      <trkpt lat="46.30682" lon="2.82491">
        <ele>355.07781129407</ele>
        <time>2021-05-13T19:27:52.655Z</time>
      </trkpt>
      <trkpt lat="46.30685" lon="2.82512">
        <ele>355.49092484811</ele>
        <time>2021-05-13T19:27:54.743Z</time>
      </trkpt>
      <trkpt lat="46.3068" lon="2.82525">
        <ele>356.02474196815</ele>
        <time>2021-05-13T19:27:56.833Z</time>
      </trkpt>
      <trkpt lat="46.30679" lon="2.82554">
        <ele>356.63783015464</ele>
        <time>2021-05-13T19:27:58.926Z</time>
      </trkpt>
      <trkpt lat="46.30676" lon="2.82567">
        <ele>357.32015501879</ele>
        <time>2021-05-13T19:28:01.020Z</time>
      </trkpt>
      <trkpt lat="46.3067" lon="2.82578">
        <ele>358.04968045548</ele>
        <time>2021-05-13T19:28:03.116Z</time>
      </trkpt>
      <trkpt lat="46.30665" lon="2.82581">
        <ele>358.79235045341</ele>
        <time>2021-05-13T19:28:05.213Z</time>
      </trkpt>
      <trkpt lat="46.30654" lon="2.82581">
        <ele>359.54576410614</ele>
        <time>2021-05-13T19:28:07.312Z</time>
      </trkpt>
      <trkpt lat="46.30632" lon="2.82569">
        <ele>360.30348200406</ele>
        <time>2021-05-13T19:28:09.414Z</time>
      </trkpt>
      <trkpt lat="46.30622" lon="2.82565">
        <ele>360.98444929668</ele>
        <time>2021-05-13T19:28:11.518Z</time>
      </trkpt>
      <trkpt lat="46.30613" lon="2.82568">
        <ele>361.60284975346</ele>
        <time>2021-05-13T19:28:13.623Z</time>
      </trkpt>
      <trkpt lat="46.30607" lon="2.82574">
        <ele>362.11819235421</ele>
        <time>2021-05-13T19:28:15.730Z</time>
      </trkpt>
      <trkpt lat="46.30602" lon="2.82585">
        <ele>362.52675618042</ele>
        <time>2021-05-13T19:28:17.838Z</time>
      </trkpt>
      <trkpt lat="46.30597" lon="2.82611">
        <ele>362.8553608456</ele>
        <time>2021-05-13T19:28:19.949Z</time>
      </trkpt>
      <trkpt lat="46.30592" lon="2.82664">
        <ele>363.11403630864</ele>
        <time>2021-05-13T19:28:22.066Z</time>
      </trkpt>
      <trkpt lat="46.30591" lon="2.82681">
        <ele>363.30168498663</ele>
        <time>2021-05-13T19:28:24.185Z</time>
      </trkpt>
      <trkpt lat="46.3059" lon="2.82687">
        <ele>363.35308815687</ele>
        <time>2021-05-13T19:28:26.305Z</time>
      </trkpt>
      <trkpt lat="46.30595" lon="2.82691">
        <ele>363.28189306994</ele>
        <time>2021-05-13T19:28:28.426Z</time>
      </trkpt>
      <trkpt lat="46.30609" lon="2.8271">
        <ele>363.08013131433</ele>
        <time>2021-05-13T19:28:30.550Z</time>
      </trkpt>
      <trkpt lat="46.30624" lon="2.82732">
        <ele>362.77178665375</ele>
        <time>2021-05-13T19:28:32.677Z</time>
      </trkpt>
      <trkpt lat="46.30639" lon="2.82753">
        <ele>362.39292287682</ele>
        <time>2021-05-13T19:28:34.807Z</time>
      </trkpt>
      <trkpt lat="46.30656" lon="2.8277">
        <ele>361.97456605619</ele>
        <time>2021-05-13T19:28:36.941Z</time>
      </trkpt>
      <trkpt lat="46.30667" lon="2.82776">
        <ele>361.44703690938</ele>
        <time>2021-05-13T19:28:39.077Z</time>
      </trkpt>
      <trkpt lat="46.30672" lon="2.82791">
        <ele>360.80492047013</ele>
        <time>2021-05-13T19:28:41.214Z</time>
      </trkpt>
      <trkpt lat="46.30682" lon="2.82819">
        <ele>360.02168237414</ele>
        <time>2021-05-13T19:28:43.355Z</time>
      </trkpt>
      <trkpt lat="46.30686" lon="2.82828">
        <ele>359.19608956926</ele>
        <time>2021-05-13T19:28:45.497Z</time>
      </trkpt>
      <trkpt lat="46.30691" lon="2.82846">
        <ele>358.26971341105</ele>
        <time>2021-05-13T19:28:47.641Z</time>
      </trkpt>
      <trkpt lat="46.30694" lon="2.82871">
        <ele>357.26870942617</ele>
        <time>2021-05-13T19:28:49.788Z</time>
      </trkpt>
      <trkpt lat="46.30698" lon="2.83001">
        <ele>356.19322713039</ele>
        <time>2021-05-13T19:28:51.950Z</time>
      </trkpt>
      <trkpt lat="46.30702" lon="2.83032">
        <ele>355.3442526037</ele>
        <time>2021-05-13T19:28:54.115Z</time>
      </trkpt>
      <trkpt lat="46.30709" lon="2.83056">
        <ele>354.48617115835</ele>
        <time>2021-05-13T19:28:56.283Z</time>
      </trkpt>
      <trkpt lat="46.30718" lon="2.83078">
        <ele>353.6753499719</ele>
        <time>2021-05-13T19:28:58.454Z</time>
      </trkpt>
      <trkpt lat="46.30726" lon="2.83102">
        <ele>352.90782165016</ele>
        <time>2021-05-13T19:29:00.628Z</time>
      </trkpt>
      <trkpt lat="46.30736" lon="2.83151">
        <ele>352.08813242428</ele>
        <time>2021-05-13T19:29:02.807Z</time>
      </trkpt>
      <trkpt lat="46.30757" lon="2.83217">
        <ele>351.33632449754</ele>
        <time>2021-05-13T19:29:04.994Z</time>
      </trkpt>
      <trkpt lat="46.30768" lon="2.83243">
        <ele>350.82060020353</ele>
        <time>2021-05-13T19:29:07.185Z</time>
      </trkpt>
      <trkpt lat="46.30769" lon="2.83246">
        <ele>350.46563385942</ele>
        <time>2021-05-13T19:29:09.376Z</time>
      </trkpt>
      <trkpt lat="46.3077" lon="2.83245">
        <ele>350.48904872927</ele>
        <time>2021-05-13T19:29:11.567Z</time>
      </trkpt>
      <trkpt lat="46.30776" lon="2.83231">
        <ele>350.64839171058</ele>
        <time>2021-05-13T19:29:13.760Z</time>
      </trkpt>
      <trkpt lat="46.308" lon="2.83153">
        <ele>351.36944920264</ele>
        <time>2021-05-13T19:29:15.963Z</time>
      </trkpt>
      <trkpt lat="46.30829" lon="2.83058">
        <ele>351.68676327893</ele>
        <time>2021-05-13T19:29:18.177Z</time>
      </trkpt>
      <trkpt lat="46.30849" lon="2.82985">
        <ele>352.14183010314</ele>
        <time>2021-05-13T19:29:20.400Z</time>
      </trkpt>
      <trkpt lat="46.30859" lon="2.82941">
        <ele>352.56369589405</ele>
        <time>2021-05-13T19:29:22.628Z</time>
      </trkpt>
      <trkpt lat="46.30867" lon="2.8289">
        <ele>352.76936731209</ele>
        <time>2021-05-13T19:29:24.862Z</time>
      </trkpt>
      <trkpt lat="46.30872" lon="2.82841">
        <ele>352.91444084249</ele>
        <time>2021-05-13T19:29:27.101Z</time>
      </trkpt>
      <trkpt lat="46.30874" lon="2.82803">
        <ele>353.08370096914</ele>
        <time>2021-05-13T19:29:29.345Z</time>
      </trkpt>
      <trkpt lat="46.30873" lon="2.82783">
        <ele>353.19796806645</ele>
        <time>2021-05-13T19:29:31.591Z</time>
      </trkpt>
      <trkpt lat="46.30889" lon="2.82777">
        <ele>353.06972830244</ele>
        <time>2021-05-13T19:29:33.839Z</time>
      </trkpt>
      <trkpt lat="46.30894" lon="2.82772">
        <ele>352.87461578973</ele>
        <time>2021-05-13T19:29:36.088Z</time>
      </trkpt>
      <trkpt lat="46.30901" lon="2.82766">
        <ele>352.27210991108</ele>
        <time>2021-05-13T19:29:38.339Z</time>
      </trkpt>
      <trkpt lat="46.30907" lon="2.82755">
        <ele>351.81903585073</ele>
        <time>2021-05-13T19:29:40.591Z</time>
      </trkpt>
      <trkpt lat="46.30914" lon="2.82731">
        <ele>351.19567506959</ele>
        <time>2021-05-13T19:29:42.846Z</time>
      </trkpt>
      <trkpt lat="46.30915" lon="2.82696">
        <ele>350.66374088406</ele>
        <time>2021-05-13T19:29:45.105Z</time>
      </trkpt>
      <trkpt lat="46.30916" lon="2.82689">
        <ele>350.06566366217</ele>
        <time>2021-05-13T19:29:47.365Z</time>
      </trkpt>
      <trkpt lat="46.30921" lon="2.82675">
        <ele>349.37955774573</ele>
        <time>2021-05-13T19:29:49.627Z</time>
      </trkpt>
      <trkpt lat="46.30931" lon="2.82659">
        <ele>348.60683053672</ele>
        <time>2021-05-13T19:29:51.891Z</time>
      </trkpt>
      <trkpt lat="46.30939" lon="2.82652">
        <ele>347.85783919345</ele>
        <time>2021-05-13T19:29:54.156Z</time>
      </trkpt>
      <trkpt lat="46.30948" lon="2.82648">
        <ele>347.11831432892</ele>
        <time>2021-05-13T19:29:56.423Z</time>
      </trkpt>
      <trkpt lat="46.30956" lon="2.82653">
        <ele>346.36645531948</ele>
        <time>2021-05-13T19:29:58.691Z</time>
      </trkpt>
      <trkpt lat="46.30956" lon="2.82663">
        <ele>345.66960515078</ele>
        <time>2021-05-13T19:30:00.960Z</time>
      </trkpt>
      <trkpt lat="46.30951" lon="2.82683">
        <ele>345.04635733089</ele>
        <time>2021-05-13T19:30:03.232Z</time>
      </trkpt>
      <trkpt lat="46.30949" lon="2.82702">
        <ele>344.53889194993</ele>
        <time>2021-05-13T19:30:05.506Z</time>
      </trkpt>
      <trkpt lat="46.30952" lon="2.82718">
        <ele>344.07594468986</ele>
        <time>2021-05-13T19:30:07.782Z</time>
      </trkpt>
      <trkpt lat="46.30957" lon="2.82726">
        <ele>343.6908278093</ele>
        <time>2021-05-13T19:30:10.059Z</time>
      </trkpt>
      <trkpt lat="46.30965" lon="2.82731">
        <ele>343.4065944033</ele>
        <time>2021-05-13T19:30:12.337Z</time>
      </trkpt>
      <trkpt lat="46.30978" lon="2.82734">
        <ele>343.26599704273</ele>
        <time>2021-05-13T19:30:14.617Z</time>
      </trkpt>
      <trkpt lat="46.31027" lon="2.82735">
        <ele>343.3322370864</ele>
        <time>2021-05-13T19:30:16.905Z</time>
      </trkpt>
      <trkpt lat="46.31036" lon="2.8274">
        <ele>343.65212913613</ele>
        <time>2021-05-13T19:30:19.195Z</time>
      </trkpt>
      <trkpt lat="46.31043" lon="2.82757">
        <ele>344.17579886286</ele>
        <time>2021-05-13T19:30:21.487Z</time>
      </trkpt>
      <trkpt lat="46.31048" lon="2.82781">
        <ele>344.84613941467</ele>
        <time>2021-05-13T19:30:23.782Z</time>
      </trkpt>
      <trkpt lat="46.31062" lon="2.82831">
        <ele>345.72061108396</ele>
        <time>2021-05-13T19:30:26.083Z</time>
      </trkpt>
      <trkpt lat="46.31077" lon="2.82878">
        <ele>346.80337974316</ele>
        <time>2021-05-13T19:30:28.390Z</time>
      </trkpt>
      <trkpt lat="46.31085" lon="2.82912">
        <ele>347.86067415293</ele>
        <time>2021-05-13T19:30:30.701Z</time>
      </trkpt>
      <trkpt lat="46.31087" lon="2.82937">
        <ele>348.96271956871</ele>
        <time>2021-05-13T19:30:33.014Z</time>
      </trkpt>
      <trkpt lat="46.31093" lon="2.82943">
        <ele>350.13070926826</ele>
        <time>2021-05-13T19:30:35.328Z</time>
      </trkpt>
      <trkpt lat="46.31098" lon="2.82943">
        <ele>351.34886344898</ele>
        <time>2021-05-13T19:30:37.643Z</time>
      </trkpt>
      <trkpt lat="46.31109" lon="2.8293">
        <ele>352.67481072553</ele>
        <time>2021-05-13T19:30:39.961Z</time>
      </trkpt>
      <trkpt lat="46.31131" lon="2.82888">
        <ele>353.98719916242</ele>
        <time>2021-05-13T19:30:42.284Z</time>
      </trkpt>
      <trkpt lat="46.31141" lon="2.82874">
        <ele>355.34846198842</ele>
        <time>2021-05-13T19:30:44.610Z</time>
      </trkpt>
      <trkpt lat="46.31147" lon="2.82871">
        <ele>356.67365387695</ele>
        <time>2021-05-13T19:30:46.937Z</time>
      </trkpt>
      <trkpt lat="46.31154" lon="2.82872">
        <ele>358.03175863112</ele>
        <time>2021-05-13T19:30:49.265Z</time>
      </trkpt>
      <trkpt lat="46.31168" lon="2.82878">
        <ele>359.43271309371</ele>
        <time>2021-05-13T19:30:51.595Z</time>
      </trkpt>
      <trkpt lat="46.31189" lon="2.82895">
        <ele>360.89439240126</ele>
        <time>2021-05-13T19:30:53.929Z</time>
      </trkpt>
      <trkpt lat="46.31204" lon="2.82897">
        <ele>362.22245015008</ele>
        <time>2021-05-13T19:30:56.265Z</time>
      </trkpt>
      <trkpt lat="46.31256" lon="2.82888">
        <ele>363.57783140319</ele>
        <time>2021-05-13T19:30:58.610Z</time>
      </trkpt>
      <trkpt lat="46.31347" lon="2.82869">
        <ele>365.18466338513</ele>
        <time>2021-05-13T19:31:00.969Z</time>
      </trkpt>
      <trkpt lat="46.31367" lon="2.82872">
        <ele>366.24726795448</ele>
        <time>2021-05-13T19:31:03.332Z</time>
      </trkpt>
      <trkpt lat="46.31394" lon="2.82885">
        <ele>367.26109590195</ele>
        <time>2021-05-13T19:31:05.699Z</time>
      </trkpt>
      <trkpt lat="46.31402" lon="2.82888">
        <ele>368.07694058846</ele>
        <time>2021-05-13T19:31:08.068Z</time>
      </trkpt>
      <trkpt lat="46.3141" lon="2.82887">
        <ele>368.77168629261</ele>
        <time>2021-05-13T19:31:10.438Z</time>
      </trkpt>
      <trkpt lat="46.3143" lon="2.82867">
        <ele>369.29493170773</ele>
        <time>2021-05-13T19:31:12.812Z</time>
      </trkpt>
      <trkpt lat="46.31469" lon="2.82826">
        <ele>369.67427316116</ele>
        <time>2021-05-13T19:31:15.193Z</time>
      </trkpt>
      <trkpt lat="46.31485" lon="2.82811">
        <ele>369.83906655615</ele>
        <time>2021-05-13T19:31:17.578Z</time>
      </trkpt>
      <trkpt lat="46.31503" lon="2.82798">
        <ele>369.97561234592</ele>
        <time>2021-05-13T19:31:19.966Z</time>
      </trkpt>
      <trkpt lat="46.31517" lon="2.82792">
        <ele>370.01430779616</ele>
        <time>2021-05-13T19:31:22.356Z</time>
      </trkpt>
      <trkpt lat="46.3153" lon="2.82789">
        <ele>369.95839347552</ele>
        <time>2021-05-13T19:31:24.748Z</time>
      </trkpt>
      <trkpt lat="46.31548" lon="2.82792">
        <ele>369.86523892975</ele>
        <time>2021-05-13T19:31:27.143Z</time>
      </trkpt>
      <trkpt lat="46.31574" lon="2.82799">
        <ele>369.49549076013</ele>
        <time>2021-05-13T19:31:29.542Z</time>
      </trkpt>
      <trkpt lat="46.316" lon="2.82807">
        <ele>369.02239574977</ele>
        <time>2021-05-13T19:31:31.946Z</time>
      </trkpt>
      <trkpt lat="46.31594" lon="2.8282">
        <ele>368.563146842</ele>
        <time>2021-05-13T19:31:34.351Z</time>
      </trkpt>
      <trkpt lat="46.3161" lon="2.82793">
        <ele>367.3086159093</ele>
        <time>2021-05-13T19:31:36.760Z</time>
      </trkpt>
      <trkpt lat="46.31628" lon="2.82776">
        <ele>366.52381613446</ele>
        <time>2021-05-13T19:31:39.173Z</time>
      </trkpt>
      <trkpt lat="46.31669" lon="2.82745">
        <ele>365.74046666364</ele>
        <time>2021-05-13T19:31:41.593Z</time>
      </trkpt>
      <trkpt lat="46.31686" lon="2.82729">
        <ele>364.88884145563</ele>
        <time>2021-05-13T19:31:44.016Z</time>
      </trkpt>
      <trkpt lat="46.31701" lon="2.82706">
        <ele>364.05791492282</ele>
        <time>2021-05-13T19:31:46.443Z</time>
      </trkpt>
      <trkpt lat="46.31732" lon="2.8265">
        <ele>363.26505789457</ele>
        <time>2021-05-13T19:31:48.878Z</time>
      </trkpt>
      <trkpt lat="46.31753" lon="2.82625">
        <ele>362.42990546423</ele>
        <time>2021-05-13T19:31:51.317Z</time>
      </trkpt>
      <trkpt lat="46.31774" lon="2.82613">
        <ele>361.53555617325</ele>
        <time>2021-05-13T19:31:53.760Z</time>
      </trkpt>
      <trkpt lat="46.31784" lon="2.8261">
        <ele>360.78706918094</ele>
        <time>2021-05-13T19:31:56.204Z</time>
      </trkpt>
      <trkpt lat="46.31797" lon="2.8261">
        <ele>360.08760467784</ele>
        <time>2021-05-13T19:31:58.651Z</time>
      </trkpt>
      <trkpt lat="46.31816" lon="2.82608">
        <ele>359.46661662528</ele>
        <time>2021-05-13T19:32:01.101Z</time>
      </trkpt>
      <trkpt lat="46.31832" lon="2.826">
        <ele>358.9487126858</ele>
        <time>2021-05-13T19:32:03.553Z</time>
      </trkpt>
      <trkpt lat="46.31867" lon="2.82548">
        <ele>358.26318336866</ele>
        <time>2021-05-13T19:32:06.013Z</time>
      </trkpt>
      <trkpt lat="46.31891" lon="2.8251">
        <ele>357.85023140193</ele>
        <time>2021-05-13T19:32:08.479Z</time>
      </trkpt>
      <trkpt lat="46.31899" lon="2.82497">
        <ele>357.29856091063</ele>
        <time>2021-05-13T19:32:10.947Z</time>
      </trkpt>
      <trkpt lat="46.31922" lon="2.82532">
        <ele>357.05633206645</ele>
        <time>2021-05-13T19:32:13.420Z</time>
      </trkpt>
      <trkpt lat="46.31935" lon="2.82561">
        <ele>356.97607965511</ele>
        <time>2021-05-13T19:32:15.897Z</time>
      </trkpt>
      <trkpt lat="46.31944" lon="2.82611">
        <ele>357.12259403954</ele>
        <time>2021-05-13T19:32:18.380Z</time>
      </trkpt>
      <trkpt lat="46.31947" lon="2.82637">
        <ele>357.21436242204</ele>
        <time>2021-05-13T19:32:20.866Z</time>
      </trkpt>
      <trkpt lat="46.31945" lon="2.82659">
        <ele>357.26258461203</ele>
        <time>2021-05-13T19:32:23.354Z</time>
      </trkpt>
      <trkpt lat="46.31945" lon="2.82675">
        <ele>357.33397658477</ele>
        <time>2021-05-13T19:32:25.844Z</time>
      </trkpt>
      <trkpt lat="46.31946" lon="2.82684">
        <ele>357.42909700277</ele>
        <time>2021-05-13T19:32:28.335Z</time>
      </trkpt>
      <trkpt lat="46.31953" lon="2.82695">
        <ele>357.55450154463</ele>
        <time>2021-05-13T19:32:30.828Z</time>
      </trkpt>
      <trkpt lat="46.31972" lon="2.82708">
        <ele>357.66244945587</ele>
        <time>2021-05-13T19:32:33.324Z</time>
      </trkpt>
      <trkpt lat="46.31998" lon="2.8272">
        <ele>357.77994760847</ele>
        <time>2021-05-13T19:32:35.824Z</time>
      </trkpt>
      <trkpt lat="46.32084" lon="2.82755">
        <ele>358.07707812099</ele>
        <time>2021-05-13T19:32:38.339Z</time>
      </trkpt>
      <trkpt lat="46.32107" lon="2.82762">
        <ele>358.05757382094</ele>
        <time>2021-05-13T19:32:40.857Z</time>
      </trkpt>
      <trkpt lat="46.32201" lon="2.8279">
        <ele>357.91971357142</ele>
        <time>2021-05-13T19:32:43.391Z</time>
      </trkpt>
      <trkpt lat="46.32308" lon="2.82802">
        <ele>357.34296795478</ele>
        <time>2021-05-13T19:32:45.942Z</time>
      </trkpt>
      <trkpt lat="46.32308" lon="2.82801">
        <ele>356.97572526322</ele>
        <time>2021-05-13T19:32:48.493Z</time>
      </trkpt>
      <trkpt lat="46.32466" lon="2.82824">
        <ele>356.22836183618</ele>
        <time>2021-05-13T19:32:51.070Z</time>
      </trkpt>
      <trkpt lat="46.32501" lon="2.82832">
        <ele>355.71588258876</ele>
        <time>2021-05-13T19:32:53.652Z</time>
      </trkpt>
      <trkpt lat="46.32532" lon="2.82845">
        <ele>355.28217564686</ele>
        <time>2021-05-13T19:32:56.239Z</time>
      </trkpt>
      <trkpt lat="46.32559" lon="2.82862">
        <ele>354.66278792513</ele>
        <time>2021-05-13T19:32:58.831Z</time>
      </trkpt>
      <trkpt lat="46.32573" lon="2.82874">
        <ele>353.7812375422</ele>
        <time>2021-05-13T19:33:01.426Z</time>
      </trkpt>
      <trkpt lat="46.32623" lon="2.82927">
        <ele>352.42226540837</ele>
        <time>2021-05-13T19:33:04.031Z</time>
      </trkpt>
      <trkpt lat="46.32698" lon="2.83011">
        <ele>351.34809485306</ele>
        <time>2021-05-13T19:33:06.651Z</time>
      </trkpt>
      <trkpt lat="46.32729" lon="2.83048">
        <ele>350.04308496067</ele>
        <time>2021-05-13T19:33:09.277Z</time>
      </trkpt>
      <trkpt lat="46.32779" lon="2.83123">
        <ele>348.70753230436</ele>
        <time>2021-05-13T19:33:11.915Z</time>
      </trkpt>
      <trkpt lat="46.3287" lon="2.83257">
        <ele>347.20812325961</ele>
        <time>2021-05-13T19:33:14.574Z</time>
      </trkpt>
      <trkpt lat="46.3291" lon="2.83299">
        <ele>346.04277631737</ele>
        <time>2021-05-13T19:33:17.241Z</time>
      </trkpt>
      <trkpt lat="46.32929" lon="2.83319">
        <ele>345.01422241129</ele>
        <time>2021-05-13T19:33:19.911Z</time>
      </trkpt>
      <trkpt lat="46.32996" lon="2.83385">
        <ele>344.05188350826</ele>
        <time>2021-05-13T19:33:22.594Z</time>
      </trkpt>
      <trkpt lat="46.33008" lon="2.83408">
        <ele>343.20366806047</ele>
        <time>2021-05-13T19:33:25.280Z</time>
      </trkpt>
      <trkpt lat="46.33044" lon="2.83484">
        <ele>341.56710174593</ele>
        <time>2021-05-13T19:33:27.977Z</time>
      </trkpt>
      <trkpt lat="46.3308" lon="2.83546">
        <ele>340.84125098507</ele>
        <time>2021-05-13T19:33:30.683Z</time>
      </trkpt>
      <trkpt lat="46.33148" lon="2.83628">
        <ele>340.47561840121</ele>
        <time>2021-05-13T19:33:33.403Z</time>
      </trkpt>
      <trkpt lat="46.3318" lon="2.8368">
        <ele>340.09222310319</ele>
        <time>2021-05-13T19:33:36.131Z</time>
      </trkpt>
      <trkpt lat="46.33198" lon="2.83711">
        <ele>339.892148468</ele>
        <time>2021-05-13T19:33:38.863Z</time>
      </trkpt>
      <trkpt lat="46.33212" lon="2.83729">
        <ele>339.83014212232</ele>
        <time>2021-05-13T19:33:41.598Z</time>
      </trkpt>
      <trkpt lat="46.33254" lon="2.83764">
        <ele>339.72013828136</ele>
        <time>2021-05-13T19:33:44.341Z</time>
      </trkpt>
      <trkpt lat="46.33293" lon="2.8379">
        <ele>339.78106476662</ele>
        <time>2021-05-13T19:33:47.091Z</time>
      </trkpt>
      <trkpt lat="46.3336" lon="2.83838">
        <ele>339.74351479442</ele>
        <time>2021-05-13T19:33:49.853Z</time>
      </trkpt>
      <trkpt lat="46.33398" lon="2.83855">
        <ele>339.84740973177</ele>
        <time>2021-05-13T19:33:52.621Z</time>
      </trkpt>
      <trkpt lat="46.33425" lon="2.83873">
        <ele>339.96410605886</ele>
        <time>2021-05-13T19:33:55.394Z</time>
      </trkpt>
      <trkpt lat="46.33455" lon="2.839">
        <ele>340.09130489979</ele>
        <time>2021-05-13T19:33:58.172Z</time>
      </trkpt>
      <trkpt lat="46.33484" lon="2.83929">
        <ele>340.21370535593</ele>
        <time>2021-05-13T19:34:00.956Z</time>
      </trkpt>
      <trkpt lat="46.33502" lon="2.83946">
        <ele>340.29821530829</ele>
        <time>2021-05-13T19:34:03.744Z</time>
      </trkpt>
      <trkpt lat="46.33543" lon="2.83997">
        <ele>340.2670071388</ele>
        <time>2021-05-13T19:34:06.540Z</time>
      </trkpt>
      <trkpt lat="46.33546" lon="2.84001">
        <ele>340.27710957667</ele>
        <time>2021-05-13T19:34:09.337Z</time>
      </trkpt>
      <trkpt lat="46.33621" lon="2.84084">
        <ele>340.13167700631</ele>
        <time>2021-05-13T19:34:12.149Z</time>
      </trkpt>
      <trkpt lat="46.33633" lon="2.84099">
        <ele>339.88834077281</ele>
        <time>2021-05-13T19:34:14.964Z</time>
      </trkpt>
      <trkpt lat="46.33652" lon="2.84132">
        <ele>339.53611010749</ele>
        <time>2021-05-13T19:34:17.783Z</time>
      </trkpt>
      <trkpt lat="46.33668" lon="2.8416">
        <ele>339.02269226814</ele>
        <time>2021-05-13T19:34:20.606Z</time>
      </trkpt>
      <trkpt lat="46.33687" lon="2.84188">
        <ele>338.37830740697</ele>
        <time>2021-05-13T19:34:23.434Z</time>
      </trkpt>
      <trkpt lat="46.33716" lon="2.84214">
        <ele>337.69596537911</ele>
        <time>2021-05-13T19:34:26.267Z</time>
      </trkpt>
      <trkpt lat="46.33764" lon="2.84246">
        <ele>336.76220293006</ele>
        <time>2021-05-13T19:34:29.109Z</time>
      </trkpt>
      <trkpt lat="46.33776" lon="2.84257">
        <ele>335.73789443511</ele>
        <time>2021-05-13T19:34:31.953Z</time>
      </trkpt>
      <trkpt lat="46.33786" lon="2.84277">
        <ele>334.54482815416</ele>
        <time>2021-05-13T19:34:34.800Z</time>
      </trkpt>
      <trkpt lat="46.33794" lon="2.84306">
        <ele>333.17839914621</ele>
        <time>2021-05-13T19:34:37.650Z</time>
      </trkpt>
      <trkpt lat="46.33805" lon="2.84347">
        <ele>331.63807330614</ele>
        <time>2021-05-13T19:34:40.505Z</time>
      </trkpt>
      <trkpt lat="46.33821" lon="2.84394">
        <ele>329.91930411125</ele>
        <time>2021-05-13T19:34:43.366Z</time>
      </trkpt>
      <trkpt lat="46.33866" lon="2.84531">
        <ele>327.60158453913</ele>
        <time>2021-05-13T19:34:46.244Z</time>
      </trkpt>
      <trkpt lat="46.33883" lon="2.84559">
        <ele>325.48433906861</ele>
        <time>2021-05-13T19:34:49.126Z</time>
      </trkpt>
      <trkpt lat="46.33931" lon="2.84626">
        <ele>322.98559062381</ele>
        <time>2021-05-13T19:34:52.018Z</time>
      </trkpt>
      <trkpt lat="46.33949" lon="2.84647">
        <ele>320.63447770272</ele>
        <time>2021-05-13T19:34:54.914Z</time>
      </trkpt>
      <trkpt lat="46.33972" lon="2.84677">
        <ele>318.23484572362</ele>
        <time>2021-05-13T19:34:57.815Z</time>
      </trkpt>
      <trkpt lat="46.34023" lon="2.84736">
        <ele>315.71173422542</ele>
        <time>2021-05-13T19:35:00.726Z</time>
      </trkpt>
      <trkpt lat="46.34043" lon="2.84756">
        <ele>313.483350525</ele>
        <time>2021-05-13T19:35:03.641Z</time>
      </trkpt>
      <trkpt lat="46.34064" lon="2.84777">
        <ele>311.36528572892</ele>
        <time>2021-05-13T19:35:06.560Z</time>
      </trkpt>
      <trkpt lat="46.34071" lon="2.84792">
        <ele>309.27103250449</ele>
        <time>2021-05-13T19:35:09.481Z</time>
      </trkpt>
      <trkpt lat="46.34074" lon="2.84815">
        <ele>307.13631225895</ele>
        <time>2021-05-13T19:35:12.405Z</time>
      </trkpt>
      <trkpt lat="46.34074" lon="2.84844">
        <ele>305.04311061039</ele>
        <time>2021-05-13T19:35:15.332Z</time>
      </trkpt>
      <trkpt lat="46.34077" lon="2.84878">
        <ele>303.0313618015</ele>
        <time>2021-05-13T19:35:18.263Z</time>
      </trkpt>
      <trkpt lat="46.34082" lon="2.84899">
        <ele>301.37872021353</ele>
        <time>2021-05-13T19:35:21.197Z</time>
      </trkpt>
      <trkpt lat="46.34086" lon="2.84914">
        <ele>298.73069984791</ele>
        <time>2021-05-13T19:35:24.132Z</time>
      </trkpt>
      <trkpt lat="46.3413" lon="2.84918">
        <ele>297.64150244523</ele>
        <time>2021-05-13T19:35:27.074Z</time>
      </trkpt>
      <trkpt lat="46.34274" lon="2.84931">
        <ele>296.65309175325</ele>
        <time>2021-05-13T19:35:30.039Z</time>
      </trkpt>
      <trkpt lat="46.34356" lon="2.84936">
        <ele>296.32700085945</ele>
        <time>2021-05-13T19:35:33.018Z</time>
      </trkpt>
      <trkpt lat="46.34369" lon="2.84937">
        <ele>295.76177993657</ele>
        <time>2021-05-13T19:35:35.999Z</time>
      </trkpt>
      <trkpt lat="46.34418" lon="2.84928">
        <ele>295.56908987196</ele>
        <time>2021-05-13T19:35:38.988Z</time>
      </trkpt>
      <trkpt lat="46.34452" lon="2.84916">
        <ele>295.35256442711</ele>
        <time>2021-05-13T19:35:41.982Z</time>
      </trkpt>
      <trkpt lat="46.34504" lon="2.84896">
        <ele>295.2911572805</ele>
        <time>2021-05-13T19:35:44.985Z</time>
      </trkpt>
      <trkpt lat="46.34548" lon="2.84877">
        <ele>295.21228675747</ele>
        <time>2021-05-13T19:35:47.995Z</time>
      </trkpt>
      <trkpt lat="46.34607" lon="2.84849">
        <ele>295.18433779095</ele>
        <time>2021-05-13T19:35:51.015Z</time>
      </trkpt>
      <trkpt lat="46.34726" lon="2.8479">
        <ele>295.06214017671</ele>
        <time>2021-05-13T19:35:54.055Z</time>
      </trkpt>
      <trkpt lat="46.34742" lon="2.84781">
        <ele>295.45365063835</ele>
        <time>2021-05-13T19:35:57.098Z</time>
      </trkpt>
      <trkpt lat="46.34746" lon="2.84774">
        <ele>295.95279097527</ele>
        <time>2021-05-13T19:36:00.142Z</time>
      </trkpt>
      <trkpt lat="46.34746" lon="2.84773">
        <ele>296.56643360978</ele>
        <time>2021-05-13T19:36:03.186Z</time>
      </trkpt>
      <trkpt lat="46.34754" lon="2.84704">
        <ele>298.0826448104</ele>
        <time>2021-05-13T19:36:06.238Z</time>
      </trkpt>
      <trkpt lat="46.34761" lon="2.84656">
        <ele>299.09030236971</ele>
        <time>2021-05-13T19:36:09.295Z</time>
      </trkpt>
      <trkpt lat="46.34759" lon="2.84629">
        <ele>300.19310222787</ele>
        <time>2021-05-13T19:36:12.355Z</time>
      </trkpt>
      <trkpt lat="46.34757" lon="2.84553">
        <ele>301.45055055769</ele>
        <time>2021-05-13T19:36:15.424Z</time>
      </trkpt>
      <trkpt lat="46.34755" lon="2.84445">
        <ele>302.60404527597</ele>
        <time>2021-05-13T19:36:18.505Z</time>
      </trkpt>
      <trkpt lat="46.3475" lon="2.84315">
        <ele>303.13722901833</ele>
        <time>2021-05-13T19:36:21.600Z</time>
      </trkpt>
      <trkpt lat="46.34745" lon="2.84155">
        <ele>303.92704655605</ele>
        <time>2021-05-13T19:36:24.713Z</time>
      </trkpt>
      <trkpt lat="46.34744" lon="2.84133">
        <ele>304.94223530021</ele>
        <time>2021-05-13T19:36:27.828Z</time>
      </trkpt>
      <trkpt lat="46.34747" lon="2.84133">
        <ele>305.23928238321</ele>
        <time>2021-05-13T19:36:30.944Z</time>
      </trkpt>
      <trkpt lat="46.34774" lon="2.84121">
        <ele>305.39529649379</ele>
        <time>2021-05-13T19:36:34.064Z</time>
      </trkpt>
      <trkpt lat="46.34806" lon="2.8411">
        <ele>305.4656020731</ele>
        <time>2021-05-13T19:36:37.190Z</time>
      </trkpt>
      <trkpt lat="46.34838" lon="2.84104">
        <ele>305.34282493999</ele>
        <time>2021-05-13T19:36:40.321Z</time>
      </trkpt>
      <trkpt lat="46.3488" lon="2.84108">
        <ele>304.90296798847</ele>
        <time>2021-05-13T19:36:43.459Z</time>
      </trkpt>
      <trkpt lat="46.34898" lon="2.84111">
        <ele>304.3647517173</ele>
        <time>2021-05-13T19:36:46.599Z</time>
      </trkpt>
      <trkpt lat="46.34924" lon="2.84114">
        <ele>303.65756325847</ele>
        <time>2021-05-13T19:36:49.744Z</time>
      </trkpt>
      <trkpt lat="46.34973" lon="2.84121">
        <ele>302.7532622108</ele>
        <time>2021-05-13T19:36:52.896Z</time>
      </trkpt>
      <trkpt lat="46.3499" lon="2.84121">
        <ele>301.82100239949</ele>
        <time>2021-05-13T19:36:56.051Z</time>
      </trkpt>
      <trkpt lat="46.35062" lon="2.84112">
        <ele>300.63726858232</ele>
        <time>2021-05-13T19:36:59.218Z</time>
      </trkpt>
      <trkpt lat="46.35073" lon="2.84113">
        <ele>299.51526945141</ele>
        <time>2021-05-13T19:37:02.387Z</time>
      </trkpt>
      <trkpt lat="46.35099" lon="2.84119">
        <ele>298.24263223875</ele>
        <time>2021-05-13T19:37:05.560Z</time>
      </trkpt>
      <trkpt lat="46.35124" lon="2.84126">
        <ele>296.99912459644</ele>
        <time>2021-05-13T19:37:08.737Z</time>
      </trkpt>
      <trkpt lat="46.35134" lon="2.84127">
        <ele>295.8062807057</ele>
        <time>2021-05-13T19:37:11.915Z</time>
      </trkpt>
      <trkpt lat="46.35135" lon="2.8413">
        <ele>294.63694853763</ele>
        <time>2021-05-13T19:37:15.094Z</time>
      </trkpt>
      <trkpt lat="46.35142" lon="2.84136">
        <ele>293.46345687295</ele>
        <time>2021-05-13T19:37:18.274Z</time>
      </trkpt>
      <trkpt lat="46.35235" lon="2.84174">
        <ele>292.08770225015</ele>
        <time>2021-05-13T19:37:21.470Z</time>
      </trkpt>
      <trkpt lat="46.35282" lon="2.84185">
        <ele>290.84527739948</ele>
        <time>2021-05-13T19:37:24.673Z</time>
      </trkpt>
      <trkpt lat="46.35302" lon="2.84191">
        <ele>289.74029292334</ele>
        <time>2021-05-13T19:37:27.879Z</time>
      </trkpt>
      <trkpt lat="46.35308" lon="2.84191">
        <ele>287.82837726694</ele>
        <time>2021-05-13T19:37:31.086Z</time>
      </trkpt>
      <trkpt lat="46.35312" lon="2.84188">
        <ele>286.9760047557</ele>
        <time>2021-05-13T19:37:34.294Z</time>
      </trkpt>
      <trkpt lat="46.35317" lon="2.84179">
        <ele>286.16587178151</ele>
        <time>2021-05-13T19:37:37.503Z</time>
      </trkpt>
      <trkpt lat="46.35319" lon="2.84169">
        <ele>285.43133986291</ele>
        <time>2021-05-13T19:37:40.714Z</time>
      </trkpt>
      <trkpt lat="46.35354" lon="2.84">
        <ele>284.74158370397</ele>
        <time>2021-05-13T19:37:43.944Z</time>
      </trkpt>
      <trkpt lat="46.3538" lon="2.83875">
        <ele>284.03307306321</ele>
        <time>2021-05-13T19:37:47.189Z</time>
      </trkpt>
      <trkpt lat="46.35392" lon="2.83789">
        <ele>283.41860041351</ele>
        <time>2021-05-13T19:37:50.443Z</time>
      </trkpt>
      <trkpt lat="46.35403" lon="2.83708">
        <ele>282.99083387001</ele>
        <time>2021-05-13T19:37:53.706Z</time>
      </trkpt>
      <trkpt lat="46.35409" lon="2.83656">
        <ele>282.65271405606</ele>
        <time>2021-05-13T19:37:56.975Z</time>
      </trkpt>
      <trkpt lat="46.35408" lon="2.83645">
        <ele>282.24063801</ele>
        <time>2021-05-13T19:38:00.246Z</time>
      </trkpt>
      <trkpt lat="46.35382" lon="2.83528">
        <ele>281.91242196121</ele>
        <time>2021-05-13T19:38:03.530Z</time>
      </trkpt>
      <trkpt lat="46.35361" lon="2.83462">
        <ele>281.39783917218</ele>
        <time>2021-05-13T19:38:06.822Z</time>
      </trkpt>
      <trkpt lat="46.35328" lon="2.83375">
        <ele>281.06524516667</ele>
        <time>2021-05-13T19:38:10.125Z</time>
      </trkpt>
      <trkpt lat="46.35273" lon="2.8324">
        <ele>280.67969492222</ele>
        <time>2021-05-13T19:38:13.446Z</time>
      </trkpt>
      <trkpt lat="46.35226" lon="2.83129">
        <ele>279.71567081399</ele>
        <time>2021-05-13T19:38:16.781Z</time>
      </trkpt>
      <trkpt lat="46.35205" lon="2.83084">
        <ele>278.92042214876</ele>
        <time>2021-05-13T19:38:20.122Z</time>
      </trkpt>
      <trkpt lat="46.35194" lon="2.83065">
        <ele>278.31246520762</ele>
        <time>2021-05-13T19:38:23.466Z</time>
      </trkpt>
      <trkpt lat="46.35185" lon="2.83043">
        <ele>277.52524181859</ele>
        <time>2021-05-13T19:38:26.813Z</time>
      </trkpt>
      <trkpt lat="46.35182" lon="2.83025">
        <ele>276.77389191693</ele>
        <time>2021-05-13T19:38:30.162Z</time>
      </trkpt>
      <trkpt lat="46.35182" lon="2.83014">
        <ele>276.1646215211</ele>
        <time>2021-05-13T19:38:33.512Z</time>
      </trkpt>
      <trkpt lat="46.35183" lon="2.83004">
        <ele>275.65500556733</ele>
        <time>2021-05-13T19:38:36.863Z</time>
      </trkpt>
      <trkpt lat="46.35203" lon="2.82944">
        <ele>275.14525128183</ele>
        <time>2021-05-13T19:38:40.221Z</time>
      </trkpt>
      <trkpt lat="46.35227" lon="2.82834">
        <ele>275.12710194823</ele>
        <time>2021-05-13T19:38:43.592Z</time>
      </trkpt>
      <trkpt lat="46.35236" lon="2.82798">
        <ele>275.16497606569</ele>
        <time>2021-05-13T19:38:46.967Z</time>
      </trkpt>
      <trkpt lat="46.35238" lon="2.82784">
        <ele>275.04858595188</ele>
        <time>2021-05-13T19:38:50.344Z</time>
      </trkpt>
      <trkpt lat="46.3524" lon="2.82784">
        <ele>274.98860994098</ele>
        <time>2021-05-13T19:38:53.721Z</time>
      </trkpt>
      <trkpt lat="46.35243" lon="2.82783">
        <ele>274.98394277027</ele>
        <time>2021-05-13T19:38:57.099Z</time>
      </trkpt>
      <trkpt lat="46.35251" lon="2.82778">
        <ele>275.03599146706</ele>
        <time>2021-05-13T19:39:00.478Z</time>
      </trkpt>
      <trkpt lat="46.35258" lon="2.82769">
        <ele>275.11464696665</ele>
        <time>2021-05-13T19:39:03.859Z</time>
      </trkpt>
      <trkpt lat="46.35251" lon="2.82778">
        <ele>275.03599146706</ele>
        <time>2021-05-13T19:39:07.241Z</time>
      </trkpt>
      <trkpt lat="46.35243" lon="2.82783">
        <ele>274.98394277027</ele>
        <time>2021-05-13T19:39:10.625Z</time>
      </trkpt>
      <trkpt lat="46.3524" lon="2.82784">
        <ele>274.98860994098</ele>
        <time>2021-05-13T19:39:14.009Z</time>
      </trkpt>
      <trkpt lat="46.35238" lon="2.82784">
        <ele>275.04858595188</ele>
        <time>2021-05-13T19:39:17.393Z</time>
      </trkpt>
      <trkpt lat="46.35239" lon="2.8278">
        <ele>276.01276815281</ele>
        <time>2021-05-13T19:39:20.778Z</time>
      </trkpt>
      <trkpt lat="46.35238" lon="2.82773">
        <ele>276.26275416262</ele>
        <time>2021-05-13T19:39:24.164Z</time>
      </trkpt>
      <trkpt lat="46.35218" lon="2.82705">
        <ele>276.5069121936</ele>
        <time>2021-05-13T19:39:27.558Z</time>
      </trkpt>
      <trkpt lat="46.35158" lon="2.82515">
        <ele>277.04431968779</ele>
        <time>2021-05-13T19:39:30.975Z</time>
      </trkpt>
      <trkpt lat="46.35147" lon="2.82482">
        <ele>277.33688413851</ele>
        <time>2021-05-13T19:39:34.396Z</time>
      </trkpt>
      <trkpt lat="46.35135" lon="2.82463">
        <ele>277.70886069398</ele>
        <time>2021-05-13T19:39:37.820Z</time>
      </trkpt>
      <trkpt lat="46.35121" lon="2.82451">
        <ele>278.0371190856</ele>
        <time>2021-05-13T19:39:41.246Z</time>
      </trkpt>
      <trkpt lat="46.35109" lon="2.82446">
        <ele>278.39478994167</ele>
        <time>2021-05-13T19:39:44.674Z</time>
      </trkpt>
      <trkpt lat="46.3509" lon="2.82439">
        <ele>278.81120219782</ele>
        <time>2021-05-13T19:39:48.106Z</time>
      </trkpt>
      <trkpt lat="46.35062" lon="2.82429">
        <ele>279.25550099893</ele>
        <time>2021-05-13T19:39:51.542Z</time>
      </trkpt>
      <trkpt lat="46.35049" lon="2.82422">
        <ele>279.69815195007</ele>
        <time>2021-05-13T19:39:54.980Z</time>
      </trkpt>
      <trkpt lat="46.35039" lon="2.82408">
        <ele>280.18532566148</ele>
        <time>2021-05-13T19:39:58.421Z</time>
      </trkpt>
      <trkpt lat="46.35033" lon="2.82394">
        <ele>280.67551184482</ele>
        <time>2021-05-13T19:40:01.863Z</time>
      </trkpt>
      <trkpt lat="46.3503" lon="2.82382">
        <ele>281.1486344219</ele>
        <time>2021-05-13T19:40:05.307Z</time>
      </trkpt>
      <trkpt lat="46.3503" lon="2.82354">
        <ele>281.67252987576</ele>
        <time>2021-05-13T19:40:08.754Z</time>
      </trkpt>
      <trkpt lat="46.35038" lon="2.82295">
        <ele>282.27741671875</ele>
        <time>2021-05-13T19:40:12.208Z</time>
      </trkpt>
      <trkpt lat="46.35043" lon="2.82256">
        <ele>282.80913920554</ele>
        <time>2021-05-13T19:40:15.666Z</time>
      </trkpt>
      <trkpt lat="46.3504" lon="2.82217">
        <ele>283.35027986657</ele>
        <time>2021-05-13T19:40:19.128Z</time>
      </trkpt>
      <trkpt lat="46.35027" lon="2.82166">
        <ele>283.85443013405</ele>
        <time>2021-05-13T19:40:22.596Z</time>
      </trkpt>
      <trkpt lat="46.34999" lon="2.82059">
        <ele>284.26341768202</ele>
        <time>2021-05-13T19:40:26.077Z</time>
      </trkpt>
      <trkpt lat="46.34993" lon="2.82047">
        <ele>284.65119892485</ele>
        <time>2021-05-13T19:40:29.560Z</time>
      </trkpt>
      <trkpt lat="46.34973" lon="2.81984">
        <ele>285.13606543655</ele>
        <time>2021-05-13T19:40:33.050Z</time>
      </trkpt>
      <trkpt lat="46.34962" lon="2.81945">
        <ele>285.43586284255</ele>
        <time>2021-05-13T19:40:36.545Z</time>
      </trkpt>
      <trkpt lat="46.34943" lon="2.81884">
        <ele>285.65943640281</ele>
        <time>2021-05-13T19:40:40.048Z</time>
      </trkpt>
      <trkpt lat="46.34932" lon="2.81862">
        <ele>285.92610027426</ele>
        <time>2021-05-13T19:40:43.554Z</time>
      </trkpt>
      <trkpt lat="46.34928" lon="2.81858">
        <ele>286.16447477001</ele>
        <time>2021-05-13T19:40:47.060Z</time>
      </trkpt>
      <trkpt lat="46.34927" lon="2.81852">
        <ele>286.38736007675</ele>
        <time>2021-05-13T19:40:50.567Z</time>
      </trkpt>
      <trkpt lat="46.34895" lon="2.81786">
        <ele>286.55457860472</ele>
        <time>2021-05-13T19:40:54.083Z</time>
      </trkpt>
      <trkpt lat="46.34842" lon="2.81676">
        <ele>286.92763434174</ele>
        <time>2021-05-13T19:40:57.614Z</time>
      </trkpt>
      <trkpt lat="46.34832" lon="2.81654">
        <ele>287.09901315434</ele>
        <time>2021-05-13T19:41:01.148Z</time>
      </trkpt>
      <trkpt lat="46.34822" lon="2.81583">
        <ele>287.31622140531</ele>
        <time>2021-05-13T19:41:04.690Z</time>
      </trkpt>
      <trkpt lat="46.34817" lon="2.81508">
        <ele>287.51369072368</ele>
        <time>2021-05-13T19:41:08.240Z</time>
      </trkpt>
      <trkpt lat="46.34814" lon="2.81452">
        <ele>288.09525610908</ele>
        <time>2021-05-13T19:41:11.796Z</time>
      </trkpt>
      <trkpt lat="46.34805" lon="2.81452">
        <ele>288.33186275884</ele>
        <time>2021-05-13T19:41:15.354Z</time>
      </trkpt>
      <trkpt lat="46.34797" lon="2.81451">
        <ele>288.60551706506</ele>
        <time>2021-05-13T19:41:18.913Z</time>
      </trkpt>
      <trkpt lat="46.34779" lon="2.81441">
        <ele>288.91440948124</ele>
        <time>2021-05-13T19:41:22.475Z</time>
      </trkpt>
      <trkpt lat="46.34761" lon="2.81425">
        <ele>289.25006385125</ele>
        <time>2021-05-13T19:41:26.041Z</time>
      </trkpt>
      <trkpt lat="46.3453" lon="2.81193">
        <ele>289.82079221264</ele>
        <time>2021-05-13T19:41:29.652Z</time>
      </trkpt>
      <trkpt lat="46.34522" lon="2.81185">
        <ele>290.21405956502</ele>
        <time>2021-05-13T19:41:33.264Z</time>
      </trkpt>
      <trkpt lat="46.34519" lon="2.81183">
        <ele>290.60749665168</ele>
        <time>2021-05-13T19:41:36.877Z</time>
      </trkpt>
      <trkpt lat="46.34521" lon="2.81179">
        <ele>291.01899222485</ele>
        <time>2021-05-13T19:41:40.490Z</time>
      </trkpt>
      <trkpt lat="46.34522" lon="2.81173">
        <ele>291.44810413403</ele>
        <time>2021-05-13T19:41:44.104Z</time>
      </trkpt>
      <trkpt lat="46.34518" lon="2.81159">
        <ele>291.89394740016</ele>
        <time>2021-05-13T19:41:47.720Z</time>
      </trkpt>
      <trkpt lat="46.34452" lon="2.80963">
        <ele>292.39787872141</ele>
        <time>2021-05-13T19:41:51.360Z</time>
      </trkpt>
      <trkpt lat="46.3441" lon="2.80841">
        <ele>293.05017711426</ele>
        <time>2021-05-13T19:41:55.015Z</time>
      </trkpt>
      <trkpt lat="46.34404" lon="2.80819">
        <ele>293.51254480628</ele>
        <time>2021-05-13T19:41:58.672Z</time>
      </trkpt>
      <trkpt lat="46.344" lon="2.80792">
        <ele>293.97338803526</ele>
        <time>2021-05-13T19:42:02.332Z</time>
      </trkpt>
      <trkpt lat="46.34396" lon="2.80759">
        <ele>294.43035515257</ele>
        <time>2021-05-13T19:42:05.996Z</time>
      </trkpt>
      <trkpt lat="46.34389" lon="2.80716">
        <ele>294.9330714966</ele>
        <time>2021-05-13T19:42:09.665Z</time>
      </trkpt>
      <trkpt lat="46.34381" lon="2.80668">
        <ele>295.46857443072</ele>
        <time>2021-05-13T19:42:13.340Z</time>
      </trkpt>
      <trkpt lat="46.34381" lon="2.80636">
        <ele>295.90426311794</ele>
        <time>2021-05-13T19:42:17.018Z</time>
      </trkpt>
      <trkpt lat="46.34378" lon="2.8061">
        <ele>296.35237331104</ele>
        <time>2021-05-13T19:42:20.699Z</time>
      </trkpt>
      <trkpt lat="46.34369" lon="2.8057">
        <ele>296.73815764696</ele>
        <time>2021-05-13T19:42:24.385Z</time>
      </trkpt>
      <trkpt lat="46.34368" lon="2.80564">
        <ele>297.09730025037</ele>
        <time>2021-05-13T19:42:28.071Z</time>
      </trkpt>
      <trkpt lat="46.3436" lon="2.80524">
        <ele>298.05695628898</ele>
        <time>2021-05-13T19:42:31.762Z</time>
      </trkpt>
      <trkpt lat="46.3435" lon="2.80493">
        <ele>298.34795378494</ele>
        <time>2021-05-13T19:42:35.457Z</time>
      </trkpt>
      <trkpt lat="46.3434" lon="2.80474">
        <ele>298.62365547908</ele>
        <time>2021-05-13T19:42:39.154Z</time>
      </trkpt>
      <trkpt lat="46.34321" lon="2.80442">
        <ele>298.89635573052</ele>
        <time>2021-05-13T19:42:42.856Z</time>
      </trkpt>
      <trkpt lat="46.34303" lon="2.80416">
        <ele>299.14291196612</ele>
        <time>2021-05-13T19:42:46.562Z</time>
      </trkpt>
      <trkpt lat="46.34292" lon="2.80396">
        <ele>299.40583172457</ele>
        <time>2021-05-13T19:42:50.271Z</time>
      </trkpt>
      <trkpt lat="46.34266" lon="2.80361">
        <ele>299.61893153949</ele>
        <time>2021-05-13T19:42:53.986Z</time>
      </trkpt>
      <trkpt lat="46.34172" lon="2.80285">
        <ele>299.93132408247</ele>
        <time>2021-05-13T19:42:57.718Z</time>
      </trkpt>
      <trkpt lat="46.34162" lon="2.80274">
        <ele>300.11161973141</ele>
        <time>2021-05-13T19:43:01.452Z</time>
      </trkpt>
      <trkpt lat="46.34154" lon="2.80261">
        <ele>300.2977627311</ele>
        <time>2021-05-13T19:43:05.188Z</time>
      </trkpt>
      <trkpt lat="46.34147" lon="2.80247">
        <ele>300.5559052749</ele>
        <time>2021-05-13T19:43:08.926Z</time>
      </trkpt>
      <trkpt lat="46.34092" lon="2.80152">
        <ele>300.83359461124</ele>
        <time>2021-05-13T19:43:12.678Z</time>
      </trkpt>
      <trkpt lat="46.34043" lon="2.8007">
        <ele>301.25398735406</ele>
        <time>2021-05-13T19:43:16.442Z</time>
      </trkpt>
      <trkpt lat="46.3402" lon="2.80037">
        <ele>301.66211858938</ele>
        <time>2021-05-13T19:43:20.211Z</time>
      </trkpt>
      <trkpt lat="46.34002" lon="2.80016">
        <ele>302.12818918733</ele>
        <time>2021-05-13T19:43:23.983Z</time>
      </trkpt>
      <trkpt lat="46.3398" lon="2.79999">
        <ele>302.65710289662</ele>
        <time>2021-05-13T19:43:27.759Z</time>
      </trkpt>
      <trkpt lat="46.3396" lon="2.79986">
        <ele>303.31173163028</ele>
        <time>2021-05-13T19:43:31.539Z</time>
      </trkpt>
      <trkpt lat="46.3395" lon="2.79977">
        <ele>304.02555312733</ele>
        <time>2021-05-13T19:43:35.321Z</time>
      </trkpt>
      <trkpt lat="46.33938" lon="2.79953">
        <ele>304.85442109236</ele>
        <time>2021-05-13T19:43:39.106Z</time>
      </trkpt>
      <trkpt lat="46.33933" lon="2.7994">
        <ele>305.46429689424</ele>
        <time>2021-05-13T19:43:42.893Z</time>
      </trkpt>
      <trkpt lat="46.33919" lon="2.79909">
        <ele>306.02638994983</ele>
        <time>2021-05-13T19:43:46.684Z</time>
      </trkpt>
      <trkpt lat="46.33906" lon="2.79891">
        <ele>306.67090180721</ele>
        <time>2021-05-13T19:43:50.478Z</time>
      </trkpt>
      <trkpt lat="46.33886" lon="2.79872">
        <ele>307.44529672656</ele>
        <time>2021-05-13T19:43:54.276Z</time>
      </trkpt>
      <trkpt lat="46.33874" lon="2.79865">
        <ele>308.1150208429</ele>
        <time>2021-05-13T19:43:58.076Z</time>
      </trkpt>
      <trkpt lat="46.33858" lon="2.79861">
        <ele>308.76759447253</ele>
        <time>2021-05-13T19:44:01.878Z</time>
      </trkpt>
      <trkpt lat="46.33842" lon="2.79861">
        <ele>309.39782405699</ele>
        <time>2021-05-13T19:44:05.683Z</time>
      </trkpt>
      <trkpt lat="46.33806" lon="2.79858">
        <ele>310.00647937581</ele>
        <time>2021-05-13T19:44:09.494Z</time>
      </trkpt>
      <trkpt lat="46.33769" lon="2.79843">
        <ele>310.20654090374</ele>
        <time>2021-05-13T19:44:13.311Z</time>
      </trkpt>
      <trkpt lat="46.33806" lon="2.79795">
        <ele>310.02486916342</ele>
        <time>2021-05-13T19:44:17.136Z</time>
      </trkpt>
      <trkpt lat="46.33815" lon="2.79786">
        <ele>310.09178761309</ele>
        <time>2021-05-13T19:44:20.962Z</time>
      </trkpt>
      <trkpt lat="46.33829" lon="2.79759">
        <ele>310.27319409848</ele>
        <time>2021-05-13T19:44:24.792Z</time>
      </trkpt>
      <trkpt lat="46.33836" lon="2.79746">
        <ele>310.38065583383</ele>
        <time>2021-05-13T19:44:28.624Z</time>
      </trkpt>
      <trkpt lat="46.33854" lon="2.79723">
        <ele>310.56804294473</ele>
        <time>2021-05-13T19:44:32.460Z</time>
      </trkpt>
      <trkpt lat="46.33866" lon="2.79709">
        <ele>310.74702942981</ele>
        <time>2021-05-13T19:44:36.298Z</time>
      </trkpt>
      <trkpt lat="46.33887" lon="2.79688">
        <ele>311.1223786791</ele>
        <time>2021-05-13T19:44:40.140Z</time>
      </trkpt>
      <trkpt lat="46.33896" lon="2.79672">
        <ele>311.30375814839</ele>
        <time>2021-05-13T19:44:43.985Z</time>
      </trkpt>
      <trkpt lat="46.33901" lon="2.79658">
        <ele>311.48462762422</ele>
        <time>2021-05-13T19:44:47.831Z</time>
      </trkpt>
      <trkpt lat="46.33906" lon="2.79652">
        <ele>311.71365837063</ele>
        <time>2021-05-13T19:44:51.678Z</time>
      </trkpt>
      <trkpt lat="46.3391" lon="2.79649">
        <ele>311.9584095133</ele>
        <time>2021-05-13T19:44:55.526Z</time>
      </trkpt>
      <trkpt lat="46.33916" lon="2.79647">
        <ele>312.25849220486</ele>
        <time>2021-05-13T19:44:59.375Z</time>
      </trkpt>
      <trkpt lat="46.33925" lon="2.79648">
        <ele>312.62564560392</ele>
        <time>2021-05-13T19:45:03.226Z</time>
      </trkpt>
      <trkpt lat="46.33943" lon="2.79652">
        <ele>313.10608374177</ele>
        <time>2021-05-13T19:45:07.080Z</time>
      </trkpt>
      <trkpt lat="46.33955" lon="2.79651">
        <ele>313.66131555085</ele>
        <time>2021-05-13T19:45:10.935Z</time>
      </trkpt>
      <trkpt lat="46.33971" lon="2.79646">
        <ele>314.21300703174</ele>
        <time>2021-05-13T19:45:14.793Z</time>
      </trkpt>
    </trkseg>
  </trk>
</gpx>